<?xml version="1.0" encoding="UTF-8" standalone="no" ?>
<gpx xmlns="http://www.topografix.com/GPX/1/1" xmlns:xsi="http://www.w3.org/2001/XMLSchema-instance" xsi:schemaLocation="http://www.topografix.com/GPX/1/1 http://www.topografix.com/GPX/1/1/gpx.xsd" version="1.1" creator="VisuGPX - https://www.visugpx.com">
  <metadata>
    <name>Autours du Mont Cindre - 26/09/2015</name>
    <desc><![CDATA[Half pipe retrouvé]]></desc>
  </metadata>
  <trk>
    <name><![CDATA[ACTIVE LOG 002]]></name>
    <trkseg>
      <trkpt lat="45.80549" lon="4.7861">
        <ele>255.84802246094</ele>
        <time>2015-09-26T13:08:21Z</time>
      </trkpt>
      <trkpt lat="45.8055" lon="4.78608">
        <ele>255.36730957031</ele>
        <time>2015-09-26T13:08:31Z</time>
      </trkpt>
      <trkpt lat="45.8057" lon="4.78577">
        <ele>254.88659667969</ele>
        <time>2015-09-26T13:08:39Z</time>
      </trkpt>
      <trkpt lat="45.80578" lon="4.78553">
        <ele>254.88659667969</ele>
        <time>2015-09-26T13:08:43Z</time>
      </trkpt>
      <trkpt lat="45.80588" lon="4.78514">
        <ele>255.36730957031</ele>
        <time>2015-09-26T13:08:49Z</time>
      </trkpt>
      <trkpt lat="45.80594" lon="4.78489">
        <ele>257.2900390625</ele>
        <time>2015-09-26T13:08:53Z</time>
      </trkpt>
      <trkpt lat="45.80608" lon="4.78437">
        <ele>258.73193359375</ele>
        <time>2015-09-26T13:09:03Z</time>
      </trkpt>
      <trkpt lat="45.80643" lon="4.78391">
        <ele>262.5771484375</ele>
        <time>2015-09-26T13:09:16Z</time>
      </trkpt>
      <trkpt lat="45.80647" lon="4.78389">
        <ele>262.5771484375</ele>
        <time>2015-09-26T13:09:18Z</time>
      </trkpt>
      <trkpt lat="45.80669" lon="4.784">
        <ele>265.46130371094</ele>
        <time>2015-09-26T13:09:26Z</time>
      </trkpt>
      <trkpt lat="45.80691" lon="4.78393">
        <ele>266.90319824219</ele>
        <time>2015-09-26T13:09:34Z</time>
      </trkpt>
      <trkpt lat="45.80711" lon="4.78387">
        <ele>265.94189453125</ele>
        <time>2015-09-26T13:09:41Z</time>
      </trkpt>
      <trkpt lat="45.8074" lon="4.78377">
        <ele>265.46130371094</ele>
        <time>2015-09-26T13:09:50Z</time>
      </trkpt>
      <trkpt lat="45.80779" lon="4.78369">
        <ele>267.38391113281</ele>
        <time>2015-09-26T13:10:00Z</time>
      </trkpt>
      <trkpt lat="45.80825" lon="4.7836">
        <ele>272.67114257812</ele>
        <time>2015-09-26T13:10:09Z</time>
      </trkpt>
      <trkpt lat="45.80843" lon="4.78358">
        <ele>273.15185546875</ele>
        <time>2015-09-26T13:10:14Z</time>
      </trkpt>
      <trkpt lat="45.80877" lon="4.78365">
        <ele>277.47766113281</ele>
        <time>2015-09-26T13:10:23Z</time>
      </trkpt>
      <trkpt lat="45.80884" lon="4.78365">
        <ele>278.43896484375</ele>
        <time>2015-09-26T13:10:25Z</time>
      </trkpt>
      <trkpt lat="45.80898" lon="4.78348">
        <ele>279.40026855469</ele>
        <time>2015-09-26T13:10:29Z</time>
      </trkpt>
      <trkpt lat="45.8092" lon="4.7829">
        <ele>283.24560546875</ele>
        <time>2015-09-26T13:10:37Z</time>
      </trkpt>
      <trkpt lat="45.80938" lon="4.78262">
        <ele>289.01354980469</ele>
        <time>2015-09-26T13:10:44Z</time>
      </trkpt>
      <trkpt lat="45.80946" lon="4.78259">
        <ele>291.41674804688</ele>
        <time>2015-09-26T13:10:48Z</time>
      </trkpt>
      <trkpt lat="45.80958" lon="4.78251">
        <ele>291.41674804688</ele>
        <time>2015-09-26T13:10:55Z</time>
      </trkpt>
      <trkpt lat="45.80981" lon="4.78257">
        <ele>290.45556640625</ele>
        <time>2015-09-26T13:11:04Z</time>
      </trkpt>
      <trkpt lat="45.81007" lon="4.78257">
        <ele>289.494140625</ele>
        <time>2015-09-26T13:11:13Z</time>
      </trkpt>
      <trkpt lat="45.81032" lon="4.78257">
        <ele>287.57141113281</ele>
        <time>2015-09-26T13:11:21Z</time>
      </trkpt>
      <trkpt lat="45.81067" lon="4.78257">
        <ele>285.64880371094</ele>
        <time>2015-09-26T13:11:31Z</time>
      </trkpt>
      <trkpt lat="45.81105" lon="4.78255">
        <ele>288.05224609375</ele>
        <time>2015-09-26T13:11:41Z</time>
      </trkpt>
      <trkpt lat="45.81136" lon="4.78248">
        <ele>291.41674804688</ele>
        <time>2015-09-26T13:11:51Z</time>
      </trkpt>
      <trkpt lat="45.81163" lon="4.78243">
        <ele>293.82006835938</ele>
        <time>2015-09-26T13:12:02Z</time>
      </trkpt>
      <trkpt lat="45.81167" lon="4.78243">
        <ele>297.18469238281</ele>
        <time>2015-09-26T13:12:11Z</time>
      </trkpt>
      <trkpt lat="45.81174" lon="4.78239">
        <ele>291.8974609375</ele>
        <time>2015-09-26T13:12:17Z</time>
      </trkpt>
      <trkpt lat="45.8121" lon="4.78227">
        <ele>280.84240722656</ele>
        <time>2015-09-26T13:12:29Z</time>
      </trkpt>
      <trkpt lat="45.81244" lon="4.78247">
        <ele>276.03564453125</ele>
        <time>2015-09-26T13:12:40Z</time>
      </trkpt>
      <trkpt lat="45.81273" lon="4.78297">
        <ele>274.11303710938</ele>
        <time>2015-09-26T13:12:54Z</time>
      </trkpt>
      <trkpt lat="45.81284" lon="4.78318">
        <ele>273.15185546875</ele>
        <time>2015-09-26T13:13:00Z</time>
      </trkpt>
      <trkpt lat="45.81294" lon="4.78322">
        <ele>273.63244628906</ele>
        <time>2015-09-26T13:13:04Z</time>
      </trkpt>
      <trkpt lat="45.81304" lon="4.78326">
        <ele>272.1904296875</ele>
        <time>2015-09-26T13:13:09Z</time>
      </trkpt>
      <trkpt lat="45.81333" lon="4.78337">
        <ele>273.63244628906</ele>
        <time>2015-09-26T13:13:21Z</time>
      </trkpt>
      <trkpt lat="45.81358" lon="4.78342">
        <ele>278.43896484375</ele>
        <time>2015-09-26T13:13:30Z</time>
      </trkpt>
      <trkpt lat="45.81394" lon="4.78347">
        <ele>277.95825195312</ele>
        <time>2015-09-26T13:13:41Z</time>
      </trkpt>
      <trkpt lat="45.81431" lon="4.78346">
        <ele>280.84240722656</ele>
        <time>2015-09-26T13:13:52Z</time>
      </trkpt>
      <trkpt lat="45.81453" lon="4.78347">
        <ele>276.03564453125</ele>
        <time>2015-09-26T13:13:58Z</time>
      </trkpt>
      <trkpt lat="45.8148" lon="4.78348">
        <ele>277.95825195312</ele>
        <time>2015-09-26T13:14:07Z</time>
      </trkpt>
      <trkpt lat="45.81516" lon="4.78348">
        <ele>282.28430175781</ele>
        <time>2015-09-26T13:14:19Z</time>
      </trkpt>
      <trkpt lat="45.81553" lon="4.78349">
        <ele>289.494140625</ele>
        <time>2015-09-26T13:14:31Z</time>
      </trkpt>
      <trkpt lat="45.81586" lon="4.7835">
        <ele>290.45556640625</ele>
        <time>2015-09-26T13:14:42Z</time>
      </trkpt>
      <trkpt lat="45.81626" lon="4.7834">
        <ele>296.7041015625</ele>
        <time>2015-09-26T13:14:55Z</time>
      </trkpt>
      <trkpt lat="45.81639" lon="4.7833">
        <ele>297.18469238281</ele>
        <time>2015-09-26T13:14:59Z</time>
      </trkpt>
      <trkpt lat="45.81675" lon="4.78308">
        <ele>295.26196289062</ele>
        <time>2015-09-26T13:15:05Z</time>
      </trkpt>
      <trkpt lat="45.81725" lon="4.783">
        <ele>292.37817382812</ele>
        <time>2015-09-26T13:15:14Z</time>
      </trkpt>
      <trkpt lat="45.81731" lon="4.78299">
        <ele>293.33935546875</ele>
        <time>2015-09-26T13:15:15Z</time>
      </trkpt>
      <trkpt lat="45.81743" lon="4.78292">
        <ele>294.30078125</ele>
        <time>2015-09-26T13:15:18Z</time>
      </trkpt>
      <trkpt lat="45.81776" lon="4.7829">
        <ele>297.18469238281</ele>
        <time>2015-09-26T13:15:30Z</time>
      </trkpt>
      <trkpt lat="45.81796" lon="4.78292">
        <ele>300.54931640625</ele>
        <time>2015-09-26T13:15:39Z</time>
      </trkpt>
      <trkpt lat="45.81799" lon="4.78299">
        <ele>303.43322753906</ele>
        <time>2015-09-26T13:15:43Z</time>
      </trkpt>
      <trkpt lat="45.81788" lon="4.78305">
        <ele>304.39465332031</ele>
        <time>2015-09-26T13:15:49Z</time>
      </trkpt>
      <trkpt lat="45.81765" lon="4.78318">
        <ele>306.31726074219</ele>
        <time>2015-09-26T13:16:01Z</time>
      </trkpt>
      <trkpt lat="45.81771" lon="4.78332">
        <ele>306.31726074219</ele>
        <time>2015-09-26T13:16:09Z</time>
      </trkpt>
      <trkpt lat="45.81805" lon="4.78335">
        <ele>305.35595703125</ele>
        <time>2015-09-26T13:16:24Z</time>
      </trkpt>
      <trkpt lat="45.81843" lon="4.78351">
        <ele>306.31726074219</ele>
        <time>2015-09-26T13:16:42Z</time>
      </trkpt>
      <trkpt lat="45.81872" lon="4.78368">
        <ele>308.72045898438</ele>
        <time>2015-09-26T13:16:58Z</time>
      </trkpt>
      <trkpt lat="45.8191" lon="4.78392">
        <ele>313.04650878906</ele>
        <time>2015-09-26T13:17:19Z</time>
      </trkpt>
      <trkpt lat="45.81939" lon="4.78401">
        <ele>314.96911621094</ele>
        <time>2015-09-26T13:17:34Z</time>
      </trkpt>
      <trkpt lat="45.81977" lon="4.78415">
        <ele>315.93041992188</ele>
        <time>2015-09-26T13:17:51Z</time>
      </trkpt>
      <trkpt lat="45.81988" lon="4.78416">
        <ele>314.48840332031</ele>
        <time>2015-09-26T13:17:58Z</time>
      </trkpt>
      <trkpt lat="45.81991" lon="4.78437">
        <ele>317.37243652344</ele>
        <time>2015-09-26T13:18:11Z</time>
      </trkpt>
      <trkpt lat="45.81989" lon="4.78465">
        <ele>323.14038085938</ele>
        <time>2015-09-26T13:18:24Z</time>
      </trkpt>
      <trkpt lat="45.81986" lon="4.78469">
        <ele>323.62097167969</ele>
        <time>2015-09-26T13:18:27Z</time>
      </trkpt>
      <trkpt lat="45.81984" lon="4.78476">
        <ele>325.54357910156</ele>
        <time>2015-09-26T13:18:31Z</time>
      </trkpt>
      <trkpt lat="45.8198" lon="4.78489">
        <ele>326.98559570312</ele>
        <time>2015-09-26T13:18:38Z</time>
      </trkpt>
      <trkpt lat="45.81988" lon="4.78494">
        <ele>328.42761230469</ele>
        <time>2015-09-26T13:18:44Z</time>
      </trkpt>
      <trkpt lat="45.81989" lon="4.78514">
        <ele>329.86950683594</ele>
        <time>2015-09-26T13:18:56Z</time>
      </trkpt>
      <trkpt lat="45.81989" lon="4.78525">
        <ele>330.35021972656</ele>
        <time>2015-09-26T13:19:01Z</time>
      </trkpt>
      <trkpt lat="45.81989" lon="4.78528">
        <ele>330.83093261719</ele>
        <time>2015-09-26T13:19:03Z</time>
      </trkpt>
      <trkpt lat="45.81985" lon="4.78567">
        <ele>334.67614746094</ele>
        <time>2015-09-26T13:19:21Z</time>
      </trkpt>
      <trkpt lat="45.81985" lon="4.78573">
        <ele>334.67614746094</ele>
        <time>2015-09-26T13:19:24Z</time>
      </trkpt>
      <trkpt lat="45.8198" lon="4.78592">
        <ele>334.19543457031</ele>
        <time>2015-09-26T13:19:36Z</time>
      </trkpt>
      <trkpt lat="45.81978" lon="4.78605">
        <ele>331.79211425781</ele>
        <time>2015-09-26T13:20:02Z</time>
      </trkpt>
      <trkpt lat="45.81977" lon="4.78609">
        <ele>332.27282714844</ele>
        <time>2015-09-26T13:20:19Z</time>
      </trkpt>
      <trkpt lat="45.81977" lon="4.78612">
        <ele>333.23413085938</ele>
        <time>2015-09-26T13:20:43Z</time>
      </trkpt>
      <trkpt lat="45.81973" lon="4.78618">
        <ele>333.23413085938</ele>
        <time>2015-09-26T13:20:55Z</time>
      </trkpt>
      <trkpt lat="45.8197" lon="4.78626">
        <ele>331.79211425781</ele>
        <time>2015-09-26T13:21:06Z</time>
      </trkpt>
      <trkpt lat="45.81969" lon="4.78637">
        <ele>331.79211425781</ele>
        <time>2015-09-26T13:21:21Z</time>
      </trkpt>
      <trkpt lat="45.81964" lon="4.78646">
        <ele>329.86950683594</ele>
        <time>2015-09-26T13:21:32Z</time>
      </trkpt>
      <trkpt lat="45.81961" lon="4.78654">
        <ele>327.46618652344</ele>
        <time>2015-09-26T13:21:46Z</time>
      </trkpt>
      <trkpt lat="45.81958" lon="4.78659">
        <ele>327.94677734375</ele>
        <time>2015-09-26T13:21:58Z</time>
      </trkpt>
      <trkpt lat="45.81958" lon="4.7866">
        <ele>328.42761230469</ele>
        <time>2015-09-26T13:22:01Z</time>
      </trkpt>
      <trkpt lat="45.81951" lon="4.78663">
        <ele>328.42761230469</ele>
        <time>2015-09-26T13:22:05Z</time>
      </trkpt>
      <trkpt lat="45.81935" lon="4.78674">
        <ele>323.14038085938</ele>
        <time>2015-09-26T13:22:16Z</time>
      </trkpt>
      <trkpt lat="45.81919" lon="4.78699">
        <ele>318.33361816406</ele>
        <time>2015-09-26T13:22:28Z</time>
      </trkpt>
      <trkpt lat="45.81916" lon="4.78703">
        <ele>317.37243652344</ele>
        <time>2015-09-26T13:22:30Z</time>
      </trkpt>
      <trkpt lat="45.81904" lon="4.78719">
        <ele>316.89172363281</ele>
        <time>2015-09-26T13:22:43Z</time>
      </trkpt>
      <trkpt lat="45.81889" lon="4.78744">
        <ele>316.41101074219</ele>
        <time>2015-09-26T13:23:04Z</time>
      </trkpt>
      <trkpt lat="45.81888" lon="4.78756">
        <ele>320.25634765625</ele>
        <time>2015-09-26T13:23:09Z</time>
      </trkpt>
      <trkpt lat="45.81885" lon="4.78777">
        <ele>325.06298828125</ele>
        <time>2015-09-26T13:23:18Z</time>
      </trkpt>
      <trkpt lat="45.81881" lon="4.78793">
        <ele>327.46618652344</ele>
        <time>2015-09-26T13:23:25Z</time>
      </trkpt>
      <trkpt lat="45.81875" lon="4.78826">
        <ele>332.27282714844</ele>
        <time>2015-09-26T13:23:37Z</time>
      </trkpt>
      <trkpt lat="45.8187" lon="4.78846">
        <ele>336.1181640625</ele>
        <time>2015-09-26T13:23:46Z</time>
      </trkpt>
      <trkpt lat="45.81868" lon="4.78855">
        <ele>337.07946777344</ele>
        <time>2015-09-26T13:23:50Z</time>
      </trkpt>
      <trkpt lat="45.81864" lon="4.78887">
        <ele>340.92468261719</ele>
        <time>2015-09-26T13:24:04Z</time>
      </trkpt>
      <trkpt lat="45.81861" lon="4.78907">
        <ele>338.521484375</ele>
        <time>2015-09-26T13:24:17Z</time>
      </trkpt>
      <trkpt lat="45.81861" lon="4.78907">
        <ele>337.07946777344</ele>
        <time>2015-09-26T13:24:44Z</time>
      </trkpt>
      <trkpt lat="45.81861" lon="4.78909">
        <ele>338.521484375</ele>
        <time>2015-09-26T13:25:39Z</time>
      </trkpt>
      <trkpt lat="45.8186" lon="4.78909">
        <ele>338.04077148438</ele>
        <time>2015-09-26T13:26:27Z</time>
      </trkpt>
      <trkpt lat="45.81859" lon="4.78912">
        <ele>338.521484375</ele>
        <time>2015-09-26T13:27:05Z</time>
      </trkpt>
      <trkpt lat="45.8187" lon="4.78945">
        <ele>342.84729003906</ele>
        <time>2015-09-26T13:27:21Z</time>
      </trkpt>
      <trkpt lat="45.81866" lon="4.78998">
        <ele>348.13464355469</ele>
        <time>2015-09-26T13:27:41Z</time>
      </trkpt>
      <trkpt lat="45.81849" lon="4.79039">
        <ele>346.21203613281</ele>
        <time>2015-09-26T13:27:53Z</time>
      </trkpt>
      <trkpt lat="45.81847" lon="4.79045">
        <ele>345.25061035156</ele>
        <time>2015-09-26T13:27:54Z</time>
      </trkpt>
      <trkpt lat="45.8185" lon="4.79126">
        <ele>338.521484375</ele>
        <time>2015-09-26T13:28:02Z</time>
      </trkpt>
      <trkpt lat="45.81859" lon="4.79177">
        <ele>335.63732910156</ele>
        <time>2015-09-26T13:28:07Z</time>
      </trkpt>
      <trkpt lat="45.81852" lon="4.79209">
        <ele>335.63732910156</ele>
        <time>2015-09-26T13:28:11Z</time>
      </trkpt>
      <trkpt lat="45.81824" lon="4.79238">
        <ele>339.48266601562</ele>
        <time>2015-09-26T13:28:27Z</time>
      </trkpt>
      <trkpt lat="45.81791" lon="4.79271">
        <ele>343.80859375</ele>
        <time>2015-09-26T13:28:46Z</time>
      </trkpt>
      <trkpt lat="45.8177" lon="4.79297">
        <ele>348.615234375</ele>
        <time>2015-09-26T13:29:02Z</time>
      </trkpt>
      <trkpt lat="45.81767" lon="4.793">
        <ele>349.09582519531</ele>
        <time>2015-09-26T13:29:04Z</time>
      </trkpt>
      <trkpt lat="45.81761" lon="4.79309">
        <ele>350.05725097656</ele>
        <time>2015-09-26T13:29:09Z</time>
      </trkpt>
      <trkpt lat="45.81757" lon="4.79322">
        <ele>351.49914550781</ele>
        <time>2015-09-26T13:29:15Z</time>
      </trkpt>
      <trkpt lat="45.81748" lon="4.79338">
        <ele>357.26708984375</ele>
        <time>2015-09-26T13:29:24Z</time>
      </trkpt>
      <trkpt lat="45.81742" lon="4.79377">
        <ele>363.99633789062</ele>
        <time>2015-09-26T13:29:42Z</time>
      </trkpt>
      <trkpt lat="45.81739" lon="4.79426">
        <ele>373.12890625</ele>
        <time>2015-09-26T13:30:03Z</time>
      </trkpt>
      <trkpt lat="45.81745" lon="4.79466">
        <ele>378.41613769531</ele>
        <time>2015-09-26T13:30:20Z</time>
      </trkpt>
      <trkpt lat="45.81745" lon="4.79468">
        <ele>378.41613769531</ele>
        <time>2015-09-26T13:30:21Z</time>
      </trkpt>
      <trkpt lat="45.81761" lon="4.79506">
        <ele>376.97424316406</ele>
        <time>2015-09-26T13:30:37Z</time>
      </trkpt>
      <trkpt lat="45.81797" lon="4.79489">
        <ele>377.93542480469</ele>
        <time>2015-09-26T13:30:51Z</time>
      </trkpt>
      <trkpt lat="45.81851" lon="4.79466">
        <ele>379.37744140625</ele>
        <time>2015-09-26T13:31:12Z</time>
      </trkpt>
      <trkpt lat="45.8191" lon="4.79448">
        <ele>384.18408203125</ele>
        <time>2015-09-26T13:31:34Z</time>
      </trkpt>
      <trkpt lat="45.81965" lon="4.79427">
        <ele>387.06799316406</ele>
        <time>2015-09-26T13:31:55Z</time>
      </trkpt>
      <trkpt lat="45.82016" lon="4.79392">
        <ele>391.39379882812</ele>
        <time>2015-09-26T13:32:17Z</time>
      </trkpt>
      <trkpt lat="45.82018" lon="4.79385">
        <ele>391.39379882812</ele>
        <time>2015-09-26T13:32:19Z</time>
      </trkpt>
      <trkpt lat="45.82025" lon="4.79375">
        <ele>392.8359375</ele>
        <time>2015-09-26T13:32:23Z</time>
      </trkpt>
      <trkpt lat="45.82094" lon="4.79334">
        <ele>398.12316894531</ele>
        <time>2015-09-26T13:32:50Z</time>
      </trkpt>
      <trkpt lat="45.82145" lon="4.79305">
        <ele>401.00708007812</ele>
        <time>2015-09-26T13:33:10Z</time>
      </trkpt>
      <trkpt lat="45.82216" lon="4.79274">
        <ele>407.736328125</ele>
        <time>2015-09-26T13:33:36Z</time>
      </trkpt>
      <trkpt lat="45.82273" lon="4.79262">
        <ele>411.10095214844</ele>
        <time>2015-09-26T13:33:56Z</time>
      </trkpt>
      <trkpt lat="45.82349" lon="4.79226">
        <ele>415.42687988281</ele>
        <time>2015-09-26T13:34:23Z</time>
      </trkpt>
      <trkpt lat="45.82378" lon="4.79209">
        <ele>416.86889648438</ele>
        <time>2015-09-26T13:34:34Z</time>
      </trkpt>
      <trkpt lat="45.82385" lon="4.79219">
        <ele>417.83020019531</ele>
        <time>2015-09-26T13:34:39Z</time>
      </trkpt>
      <trkpt lat="45.82393" lon="4.79288">
        <ele>412.54284667969</ele>
        <time>2015-09-26T13:34:48Z</time>
      </trkpt>
      <trkpt lat="45.82417" lon="4.79416">
        <ele>399.08435058594</ele>
        <time>2015-09-26T13:34:57Z</time>
      </trkpt>
      <trkpt lat="45.82417" lon="4.79426">
        <ele>399.08435058594</ele>
        <time>2015-09-26T13:34:58Z</time>
      </trkpt>
      <trkpt lat="45.824" lon="4.79458">
        <ele>396.68115234375</ele>
        <time>2015-09-26T13:35:05Z</time>
      </trkpt>
      <trkpt lat="45.82398" lon="4.79464">
        <ele>396.20056152344</ele>
        <time>2015-09-26T13:35:06Z</time>
      </trkpt>
      <trkpt lat="45.82397" lon="4.79502">
        <ele>392.8359375</ele>
        <time>2015-09-26T13:35:10Z</time>
      </trkpt>
      <trkpt lat="45.82408" lon="4.79572">
        <ele>392.35534667969</ele>
        <time>2015-09-26T13:35:17Z</time>
      </trkpt>
      <trkpt lat="45.82403" lon="4.79625">
        <ele>394.75854492188</ele>
        <time>2015-09-26T13:35:27Z</time>
      </trkpt>
      <trkpt lat="45.82404" lon="4.79629">
        <ele>395.23913574219</ele>
        <time>2015-09-26T13:35:29Z</time>
      </trkpt>
      <trkpt lat="45.82412" lon="4.79627">
        <ele>395.71984863281</ele>
        <time>2015-09-26T13:35:35Z</time>
      </trkpt>
      <trkpt lat="45.82448" lon="4.79598">
        <ele>401.48779296875</ele>
        <time>2015-09-26T13:35:57Z</time>
      </trkpt>
      <trkpt lat="45.82461" lon="4.79589">
        <ele>402.9296875</ele>
        <time>2015-09-26T13:36:05Z</time>
      </trkpt>
      <trkpt lat="45.82492" lon="4.79573">
        <ele>406.77490234375</ele>
        <time>2015-09-26T13:36:21Z</time>
      </trkpt>
      <trkpt lat="45.82507" lon="4.79567">
        <ele>408.21704101562</ele>
        <time>2015-09-26T13:36:29Z</time>
      </trkpt>
      <trkpt lat="45.82524" lon="4.79556">
        <ele>410.62023925781</ele>
        <time>2015-09-26T13:36:38Z</time>
      </trkpt>
      <trkpt lat="45.82549" lon="4.7954">
        <ele>412.06225585938</ele>
        <time>2015-09-26T13:36:51Z</time>
      </trkpt>
      <trkpt lat="45.82555" lon="4.79535">
        <ele>413.02355957031</ele>
        <time>2015-09-26T13:36:54Z</time>
      </trkpt>
      <trkpt lat="45.82561" lon="4.7953">
        <ele>413.50427246094</ele>
        <time>2015-09-26T13:36:58Z</time>
      </trkpt>
      <trkpt lat="45.82604" lon="4.79511">
        <ele>417.83020019531</ele>
        <time>2015-09-26T13:37:20Z</time>
      </trkpt>
      <trkpt lat="45.82649" lon="4.79509">
        <ele>421.19482421875</ele>
        <time>2015-09-26T13:37:41Z</time>
      </trkpt>
      <trkpt lat="45.82692" lon="4.79507">
        <ele>424.07873535156</ele>
        <time>2015-09-26T13:38:01Z</time>
      </trkpt>
      <trkpt lat="45.8271" lon="4.79505">
        <ele>426.00134277344</ele>
        <time>2015-09-26T13:38:09Z</time>
      </trkpt>
      <trkpt lat="45.82717" lon="4.79537">
        <ele>423.59802246094</ele>
        <time>2015-09-26T13:38:16Z</time>
      </trkpt>
      <trkpt lat="45.8272" lon="4.79567">
        <ele>420.2333984375</ele>
        <time>2015-09-26T13:38:19Z</time>
      </trkpt>
      <trkpt lat="45.82732" lon="4.79633">
        <ele>412.06225585938</ele>
        <time>2015-09-26T13:38:28Z</time>
      </trkpt>
      <trkpt lat="45.82732" lon="4.79636">
        <ele>411.58166503906</ele>
        <time>2015-09-26T13:38:29Z</time>
      </trkpt>
      <trkpt lat="45.82715" lon="4.79642">
        <ele>409.65905761719</ele>
        <time>2015-09-26T13:38:36Z</time>
      </trkpt>
      <trkpt lat="45.827" lon="4.79645">
        <ele>410.1396484375</ele>
        <time>2015-09-26T13:38:41Z</time>
      </trkpt>
      <trkpt lat="45.82695" lon="4.79647">
        <ele>409.17834472656</ele>
        <time>2015-09-26T13:38:44Z</time>
      </trkpt>
      <trkpt lat="45.82693" lon="4.79649">
        <ele>409.17834472656</ele>
        <time>2015-09-26T13:38:46Z</time>
      </trkpt>
      <trkpt lat="45.82689" lon="4.79649">
        <ele>409.17834472656</ele>
        <time>2015-09-26T13:38:48Z</time>
      </trkpt>
      <trkpt lat="45.82657" lon="4.79652">
        <ele>408.69763183594</ele>
        <time>2015-09-26T13:39:00Z</time>
      </trkpt>
      <trkpt lat="45.82614" lon="4.79632">
        <ele>410.62023925781</ele>
        <time>2015-09-26T13:39:15Z</time>
      </trkpt>
      <trkpt lat="45.82611" lon="4.7963">
        <ele>410.62023925781</ele>
        <time>2015-09-26T13:39:17Z</time>
      </trkpt>
      <trkpt lat="45.8261" lon="4.79635">
        <ele>409.65905761719</ele>
        <time>2015-09-26T13:39:21Z</time>
      </trkpt>
      <trkpt lat="45.82612" lon="4.79642">
        <ele>408.21704101562</ele>
        <time>2015-09-26T13:39:24Z</time>
      </trkpt>
      <trkpt lat="45.82615" lon="4.79646">
        <ele>407.25561523438</ele>
        <time>2015-09-26T13:39:26Z</time>
      </trkpt>
      <trkpt lat="45.82617" lon="4.79654">
        <ele>406.29431152344</ele>
        <time>2015-09-26T13:39:29Z</time>
      </trkpt>
      <trkpt lat="45.82624" lon="4.79662">
        <ele>404.37170410156</ele>
        <time>2015-09-26T13:39:34Z</time>
      </trkpt>
      <trkpt lat="45.82631" lon="4.7967">
        <ele>402.44909667969</ele>
        <time>2015-09-26T13:39:38Z</time>
      </trkpt>
      <trkpt lat="45.82644" lon="4.7969">
        <ele>397.16174316406</ele>
        <time>2015-09-26T13:39:47Z</time>
      </trkpt>
      <trkpt lat="45.82635" lon="4.79713">
        <ele>396.68115234375</ele>
        <time>2015-09-26T13:39:57Z</time>
      </trkpt>
      <trkpt lat="45.82634" lon="4.79713">
        <ele>396.20056152344</ele>
        <time>2015-09-26T13:40:00Z</time>
      </trkpt>
      <trkpt lat="45.8262" lon="4.79763">
        <ele>397.16174316406</ele>
        <time>2015-09-26T13:40:13Z</time>
      </trkpt>
      <trkpt lat="45.82609" lon="4.79832">
        <ele>400.0458984375</ele>
        <time>2015-09-26T13:40:25Z</time>
      </trkpt>
      <trkpt lat="45.82597" lon="4.79883">
        <ele>399.56506347656</ele>
        <time>2015-09-26T13:40:33Z</time>
      </trkpt>
      <trkpt lat="45.82592" lon="4.79904">
        <ele>400.0458984375</ele>
        <time>2015-09-26T13:40:36Z</time>
      </trkpt>
      <trkpt lat="45.82585" lon="4.79965">
        <ele>400.0458984375</ele>
        <time>2015-09-26T13:40:49Z</time>
      </trkpt>
      <trkpt lat="45.82567" lon="4.80026">
        <ele>398.12316894531</ele>
        <time>2015-09-26T13:41:04Z</time>
      </trkpt>
      <trkpt lat="45.82553" lon="4.80082">
        <ele>398.60375976562</ele>
        <time>2015-09-26T13:41:18Z</time>
      </trkpt>
      <trkpt lat="45.82514" lon="4.80134">
        <ele>394.75854492188</ele>
        <time>2015-09-26T13:41:28Z</time>
      </trkpt>
      <trkpt lat="45.82463" lon="4.802">
        <ele>391.39379882812</ele>
        <time>2015-09-26T13:41:37Z</time>
      </trkpt>
      <trkpt lat="45.82446" lon="4.80247">
        <ele>394.75854492188</ele>
        <time>2015-09-26T13:41:45Z</time>
      </trkpt>
      <trkpt lat="45.82435" lon="4.80275">
        <ele>400.0458984375</ele>
        <time>2015-09-26T13:41:58Z</time>
      </trkpt>
      <trkpt lat="45.82434" lon="4.80285">
        <ele>402.44909667969</ele>
        <time>2015-09-26T13:42:02Z</time>
      </trkpt>
      <trkpt lat="45.82421" lon="4.80327">
        <ele>406.77490234375</ele>
        <time>2015-09-26T13:42:22Z</time>
      </trkpt>
      <trkpt lat="45.82415" lon="4.8035">
        <ele>408.69763183594</ele>
        <time>2015-09-26T13:42:33Z</time>
      </trkpt>
      <trkpt lat="45.82413" lon="4.80357">
        <ele>409.17834472656</ele>
        <time>2015-09-26T13:42:37Z</time>
      </trkpt>
      <trkpt lat="45.8241" lon="4.80387">
        <ele>412.06225585938</ele>
        <time>2015-09-26T13:42:53Z</time>
      </trkpt>
      <trkpt lat="45.82397" lon="4.80425">
        <ele>409.65905761719</ele>
        <time>2015-09-26T13:43:03Z</time>
      </trkpt>
      <trkpt lat="45.82394" lon="4.80443">
        <ele>407.736328125</ele>
        <time>2015-09-26T13:43:11Z</time>
      </trkpt>
      <trkpt lat="45.82393" lon="4.80445">
        <ele>407.736328125</ele>
        <time>2015-09-26T13:43:24Z</time>
      </trkpt>
      <trkpt lat="45.82391" lon="4.80458">
        <ele>405.3330078125</ele>
        <time>2015-09-26T13:43:27Z</time>
      </trkpt>
      <trkpt lat="45.82386" lon="4.8048">
        <ele>402.9296875</ele>
        <time>2015-09-26T13:43:30Z</time>
      </trkpt>
      <trkpt lat="45.8238" lon="4.80517">
        <ele>399.56506347656</ele>
        <time>2015-09-26T13:43:34Z</time>
      </trkpt>
      <trkpt lat="45.82371" lon="4.8055">
        <ele>397.16174316406</ele>
        <time>2015-09-26T13:43:38Z</time>
      </trkpt>
      <trkpt lat="45.82365" lon="4.80569">
        <ele>393.31652832031</ele>
        <time>2015-09-26T13:43:41Z</time>
      </trkpt>
      <trkpt lat="45.8236" lon="4.8064">
        <ele>385.6259765625</ele>
        <time>2015-09-26T13:43:51Z</time>
      </trkpt>
      <trkpt lat="45.82355" lon="4.80672">
        <ele>381.78063964844</ele>
        <time>2015-09-26T13:44:01Z</time>
      </trkpt>
      <trkpt lat="45.82355" lon="4.80673">
        <ele>382.26135253906</ele>
        <time>2015-09-26T13:44:58Z</time>
      </trkpt>
      <trkpt lat="45.82352" lon="4.80679">
        <ele>381.30004882812</ele>
        <time>2015-09-26T13:45:04Z</time>
      </trkpt>
      <trkpt lat="45.82312" lon="4.80746">
        <ele>370.24487304688</ele>
        <time>2015-09-26T13:45:16Z</time>
      </trkpt>
      <trkpt lat="45.82296" lon="4.80773">
        <ele>366.39953613281</ele>
        <time>2015-09-26T13:45:24Z</time>
      </trkpt>
      <trkpt lat="45.82295" lon="4.80784">
        <ele>364.95764160156</ele>
        <time>2015-09-26T13:45:28Z</time>
      </trkpt>
      <trkpt lat="45.82297" lon="4.80789">
        <ele>363.51574707031</ele>
        <time>2015-09-26T13:45:39Z</time>
      </trkpt>
      <trkpt lat="45.82311" lon="4.80806">
        <ele>361.59313964844</ele>
        <time>2015-09-26T13:45:56Z</time>
      </trkpt>
      <trkpt lat="45.82325" lon="4.80818">
        <ele>360.15112304688</ele>
        <time>2015-09-26T13:46:00Z</time>
      </trkpt>
      <trkpt lat="45.82314" lon="4.80887">
        <ele>351.01843261719</ele>
        <time>2015-09-26T13:46:08Z</time>
      </trkpt>
      <trkpt lat="45.823" lon="4.80978">
        <ele>343.80859375</ele>
        <time>2015-09-26T13:46:14Z</time>
      </trkpt>
      <trkpt lat="45.82294" lon="4.81001">
        <ele>341.88598632812</ele>
        <time>2015-09-26T13:46:16Z</time>
      </trkpt>
      <trkpt lat="45.82289" lon="4.81037">
        <ele>339.96337890625</ele>
        <time>2015-09-26T13:46:21Z</time>
      </trkpt>
      <trkpt lat="45.82285" lon="4.81045">
        <ele>339.96337890625</ele>
        <time>2015-09-26T13:46:23Z</time>
      </trkpt>
      <trkpt lat="45.82273" lon="4.8108">
        <ele>337.56005859375</ele>
        <time>2015-09-26T13:46:29Z</time>
      </trkpt>
      <trkpt lat="45.82259" lon="4.81096">
        <ele>336.1181640625</ele>
        <time>2015-09-26T13:46:33Z</time>
      </trkpt>
      <trkpt lat="45.82216" lon="4.81114">
        <ele>333.23413085938</ele>
        <time>2015-09-26T13:46:40Z</time>
      </trkpt>
      <trkpt lat="45.82156" lon="4.81172">
        <ele>330.35021972656</ele>
        <time>2015-09-26T13:46:50Z</time>
      </trkpt>
      <trkpt lat="45.82137" lon="4.81187">
        <ele>329.86950683594</ele>
        <time>2015-09-26T13:46:53Z</time>
      </trkpt>
      <trkpt lat="45.82105" lon="4.81204">
        <ele>329.38891601562</ele>
        <time>2015-09-26T13:46:58Z</time>
      </trkpt>
      <trkpt lat="45.82072" lon="4.81218">
        <ele>327.94677734375</ele>
        <time>2015-09-26T13:47:03Z</time>
      </trkpt>
      <trkpt lat="45.82039" lon="4.81232">
        <ele>327.94677734375</ele>
        <time>2015-09-26T13:47:09Z</time>
      </trkpt>
      <trkpt lat="45.82018" lon="4.81235">
        <ele>327.46618652344</ele>
        <time>2015-09-26T13:47:13Z</time>
      </trkpt>
      <trkpt lat="45.81954" lon="4.81245">
        <ele>326.98559570312</ele>
        <time>2015-09-26T13:47:25Z</time>
      </trkpt>
      <trkpt lat="45.81928" lon="4.81272">
        <ele>328.42761230469</ele>
        <time>2015-09-26T13:47:35Z</time>
      </trkpt>
      <trkpt lat="45.81911" lon="4.81324">
        <ele>332.75354003906</ele>
        <time>2015-09-26T13:47:53Z</time>
      </trkpt>
      <trkpt lat="45.81885" lon="4.81337">
        <ele>334.67614746094</ele>
        <time>2015-09-26T13:48:06Z</time>
      </trkpt>
      <trkpt lat="45.81855" lon="4.81369">
        <ele>338.521484375</ele>
        <time>2015-09-26T13:48:24Z</time>
      </trkpt>
      <trkpt lat="45.81844" lon="4.81426">
        <ele>345.73132324219</ele>
        <time>2015-09-26T13:48:44Z</time>
      </trkpt>
      <trkpt lat="45.81851" lon="4.81439">
        <ele>347.17321777344</ele>
        <time>2015-09-26T13:48:50Z</time>
      </trkpt>
      <trkpt lat="45.81885" lon="4.81434">
        <ele>349.57653808594</ele>
        <time>2015-09-26T13:49:05Z</time>
      </trkpt>
      <trkpt lat="45.81902" lon="4.81428">
        <ele>352.46057128906</ele>
        <time>2015-09-26T13:49:12Z</time>
      </trkpt>
      <trkpt lat="45.81965" lon="4.81437">
        <ele>354.38317871094</ele>
        <time>2015-09-26T13:49:32Z</time>
      </trkpt>
      <trkpt lat="45.81995" lon="4.81449">
        <ele>354.86376953125</ele>
        <time>2015-09-26T13:49:41Z</time>
      </trkpt>
      <trkpt lat="45.81993" lon="4.81486">
        <ele>354.38317871094</ele>
        <time>2015-09-26T13:49:50Z</time>
      </trkpt>
      <trkpt lat="45.82011" lon="4.8153">
        <ele>358.22839355469</ele>
        <time>2015-09-26T13:50:04Z</time>
      </trkpt>
      <trkpt lat="45.82015" lon="4.81542">
        <ele>359.67041015625</ele>
        <time>2015-09-26T13:50:08Z</time>
      </trkpt>
      <trkpt lat="45.81985" lon="4.81597">
        <ele>357.74780273438</ele>
        <time>2015-09-26T13:50:22Z</time>
      </trkpt>
      <trkpt lat="45.81963" lon="4.81636">
        <ele>357.26708984375</ele>
        <time>2015-09-26T13:50:29Z</time>
      </trkpt>
      <trkpt lat="45.81941" lon="4.81708">
        <ele>355.34448242188</ele>
        <time>2015-09-26T13:50:42Z</time>
      </trkpt>
      <trkpt lat="45.81926" lon="4.81754">
        <ele>353.421875</ele>
        <time>2015-09-26T13:50:50Z</time>
      </trkpt>
      <trkpt lat="45.81929" lon="4.81765">
        <ele>353.90258789062</ele>
        <time>2015-09-26T13:50:54Z</time>
      </trkpt>
      <trkpt lat="45.81943" lon="4.81778">
        <ele>354.38317871094</ele>
        <time>2015-09-26T13:51:04Z</time>
      </trkpt>
      <trkpt lat="45.81944" lon="4.81781">
        <ele>355.34448242188</ele>
        <time>2015-09-26T13:51:06Z</time>
      </trkpt>
      <trkpt lat="45.81949" lon="4.81786">
        <ele>356.30578613281</ele>
        <time>2015-09-26T13:51:10Z</time>
      </trkpt>
      <trkpt lat="45.81956" lon="4.81798">
        <ele>358.22839355469</ele>
        <time>2015-09-26T13:51:17Z</time>
      </trkpt>
      <trkpt lat="45.81968" lon="4.81812">
        <ele>360.63171386719</ele>
        <time>2015-09-26T13:51:27Z</time>
      </trkpt>
      <trkpt lat="45.81982" lon="4.81832">
        <ele>364.95764160156</ele>
        <time>2015-09-26T13:51:41Z</time>
      </trkpt>
      <trkpt lat="45.81985" lon="4.81834">
        <ele>365.43835449219</ele>
        <time>2015-09-26T13:51:43Z</time>
      </trkpt>
      <trkpt lat="45.81993" lon="4.8184">
        <ele>368.322265625</ele>
        <time>2015-09-26T13:51:55Z</time>
      </trkpt>
      <trkpt lat="45.81997" lon="4.8185">
        <ele>371.68688964844</ele>
        <time>2015-09-26T13:52:08Z</time>
      </trkpt>
      <trkpt lat="45.82003" lon="4.81855">
        <ele>373.12890625</ele>
        <time>2015-09-26T13:52:22Z</time>
      </trkpt>
      <trkpt lat="45.82006" lon="4.81855">
        <ele>375.05151367188</ele>
        <time>2015-09-26T13:52:31Z</time>
      </trkpt>
      <trkpt lat="45.82018" lon="4.8182">
        <ele>376.97424316406</ele>
        <time>2015-09-26T13:52:46Z</time>
      </trkpt>
      <trkpt lat="45.82041" lon="4.81781">
        <ele>377.45483398438</ele>
        <time>2015-09-26T13:52:59Z</time>
      </trkpt>
      <trkpt lat="45.82078" lon="4.81726">
        <ele>376.49353027344</ele>
        <time>2015-09-26T13:53:17Z</time>
      </trkpt>
      <trkpt lat="45.82114" lon="4.81671">
        <ele>373.12890625</ele>
        <time>2015-09-26T13:53:32Z</time>
      </trkpt>
      <trkpt lat="45.82131" lon="4.81665">
        <ele>372.16748046875</ele>
        <time>2015-09-26T13:53:37Z</time>
      </trkpt>
      <trkpt lat="45.8214" lon="4.81672">
        <ele>373.60949707031</ele>
        <time>2015-09-26T13:53:42Z</time>
      </trkpt>
      <trkpt lat="45.82176" lon="4.81665">
        <ele>377.93542480469</ele>
        <time>2015-09-26T13:54:02Z</time>
      </trkpt>
      <trkpt lat="45.82212" lon="4.81655">
        <ele>382.26135253906</ele>
        <time>2015-09-26T13:54:21Z</time>
      </trkpt>
      <trkpt lat="45.82245" lon="4.81645">
        <ele>384.66479492188</ele>
        <time>2015-09-26T13:54:36Z</time>
      </trkpt>
      <trkpt lat="45.82294" lon="4.81628">
        <ele>388.029296875</ele>
        <time>2015-09-26T13:54:57Z</time>
      </trkpt>
      <trkpt lat="45.82323" lon="4.81609">
        <ele>388.99060058594</ele>
        <time>2015-09-26T13:55:12Z</time>
      </trkpt>
      <trkpt lat="45.82325" lon="4.81607">
        <ele>388.99060058594</ele>
        <time>2015-09-26T13:55:14Z</time>
      </trkpt>
      <trkpt lat="45.8233" lon="4.81611">
        <ele>391.39379882812</ele>
        <time>2015-09-26T13:55:18Z</time>
      </trkpt>
      <trkpt lat="45.82334" lon="4.81637">
        <ele>396.20056152344</ele>
        <time>2015-09-26T13:55:30Z</time>
      </trkpt>
      <trkpt lat="45.82356" lon="4.81655">
        <ele>402.44909667969</ele>
        <time>2015-09-26T13:55:47Z</time>
      </trkpt>
      <trkpt lat="45.8238" lon="4.81674">
        <ele>409.17834472656</ele>
        <time>2015-09-26T13:56:07Z</time>
      </trkpt>
      <trkpt lat="45.82398" lon="4.81688">
        <ele>415.42687988281</ele>
        <time>2015-09-26T13:56:21Z</time>
      </trkpt>
      <trkpt lat="45.824" lon="4.81692">
        <ele>416.38818359375</ele>
        <time>2015-09-26T13:56:23Z</time>
      </trkpt>
      <trkpt lat="45.82417" lon="4.81709">
        <ele>419.75280761719</ele>
        <time>2015-09-26T13:56:37Z</time>
      </trkpt>
      <trkpt lat="45.82426" lon="4.81714">
        <ele>422.15600585938</ele>
        <time>2015-09-26T13:56:56Z</time>
      </trkpt>
      <trkpt lat="45.82428" lon="4.81713">
        <ele>422.63671875</ele>
        <time>2015-09-26T13:57:43Z</time>
      </trkpt>
      <trkpt lat="45.82434" lon="4.81713">
        <ele>424.07873535156</ele>
        <time>2015-09-26T13:57:48Z</time>
      </trkpt>
      <trkpt lat="45.82435" lon="4.81715">
        <ele>424.07873535156</ele>
        <time>2015-09-26T13:57:50Z</time>
      </trkpt>
      <trkpt lat="45.82439" lon="4.81714">
        <ele>424.55944824219</ele>
        <time>2015-09-26T13:57:53Z</time>
      </trkpt>
      <trkpt lat="45.82443" lon="4.81718">
        <ele>426.00134277344</ele>
        <time>2015-09-26T13:57:57Z</time>
      </trkpt>
      <trkpt lat="45.82446" lon="4.81719">
        <ele>426.48205566406</ele>
        <time>2015-09-26T13:57:59Z</time>
      </trkpt>
      <trkpt lat="45.82449" lon="4.81719">
        <ele>427.443359375</ele>
        <time>2015-09-26T13:58:01Z</time>
      </trkpt>
      <trkpt lat="45.82451" lon="4.81717">
        <ele>427.443359375</ele>
        <time>2015-09-26T13:58:03Z</time>
      </trkpt>
      <trkpt lat="45.82453" lon="4.81709">
        <ele>427.443359375</ele>
        <time>2015-09-26T13:58:08Z</time>
      </trkpt>
      <trkpt lat="45.82454" lon="4.81706">
        <ele>427.92395019531</ele>
        <time>2015-09-26T13:58:10Z</time>
      </trkpt>
      <trkpt lat="45.82455" lon="4.81696">
        <ele>429.36596679688</ele>
        <time>2015-09-26T13:58:15Z</time>
      </trkpt>
      <trkpt lat="45.8246" lon="4.81669">
        <ele>433.69189453125</ele>
        <time>2015-09-26T13:58:28Z</time>
      </trkpt>
      <trkpt lat="45.82462" lon="4.81665">
        <ele>433.69189453125</ele>
        <time>2015-09-26T13:58:30Z</time>
      </trkpt>
      <trkpt lat="45.82474" lon="4.81667">
        <ele>435.13391113281</ele>
        <time>2015-09-26T13:58:38Z</time>
      </trkpt>
      <trkpt lat="45.82505" lon="4.81649">
        <ele>436.57592773438</ele>
        <time>2015-09-26T13:58:54Z</time>
      </trkpt>
      <trkpt lat="45.82514" lon="4.81644">
        <ele>437.537109375</ele>
        <time>2015-09-26T13:58:58Z</time>
      </trkpt>
      <trkpt lat="45.82546" lon="4.81628">
        <ele>436.57592773438</ele>
        <time>2015-09-26T13:59:10Z</time>
      </trkpt>
      <trkpt lat="45.82553" lon="4.81625">
        <ele>436.09521484375</ele>
        <time>2015-09-26T13:59:12Z</time>
      </trkpt>
      <trkpt lat="45.82588" lon="4.81602">
        <ele>433.69189453125</ele>
        <time>2015-09-26T13:59:24Z</time>
      </trkpt>
      <trkpt lat="45.82646" lon="4.81572">
        <ele>431.76916503906</ele>
        <time>2015-09-26T13:59:39Z</time>
      </trkpt>
      <trkpt lat="45.82676" lon="4.81558">
        <ele>429.36596679688</ele>
        <time>2015-09-26T13:59:44Z</time>
      </trkpt>
      <trkpt lat="45.8272" lon="4.81544">
        <ele>429.36596679688</ele>
        <time>2015-09-26T13:59:52Z</time>
      </trkpt>
      <trkpt lat="45.82722" lon="4.81552">
        <ele>430.80798339844</ele>
        <time>2015-09-26T13:59:56Z</time>
      </trkpt>
      <trkpt lat="45.82721" lon="4.81557">
        <ele>431.76916503906</ele>
        <time>2015-09-26T13:59:58Z</time>
      </trkpt>
      <trkpt lat="45.82718" lon="4.81571">
        <ele>435.13391113281</ele>
        <time>2015-09-26T14:00:06Z</time>
      </trkpt>
      <trkpt lat="45.82716" lon="4.81579">
        <ele>435.13391113281</ele>
        <time>2015-09-26T14:00:10Z</time>
      </trkpt>
      <trkpt lat="45.82708" lon="4.81602">
        <ele>437.537109375</ele>
        <time>2015-09-26T14:00:25Z</time>
      </trkpt>
      <trkpt lat="45.82705" lon="4.81623">
        <ele>439.9404296875</ele>
        <time>2015-09-26T14:00:39Z</time>
      </trkpt>
      <trkpt lat="45.827" lon="4.81648">
        <ele>440.90185546875</ele>
        <time>2015-09-26T14:00:53Z</time>
      </trkpt>
      <trkpt lat="45.82698" lon="4.81659">
        <ele>440.42126464844</ele>
        <time>2015-09-26T14:00:58Z</time>
      </trkpt>
      <trkpt lat="45.82694" lon="4.81703">
        <ele>443.78576660156</ele>
        <time>2015-09-26T14:01:18Z</time>
      </trkpt>
      <trkpt lat="45.82689" lon="4.81744">
        <ele>444.7470703125</ele>
        <time>2015-09-26T14:01:35Z</time>
      </trkpt>
      <trkpt lat="45.82684" lon="4.81783">
        <ele>445.22766113281</ele>
        <time>2015-09-26T14:01:50Z</time>
      </trkpt>
      <trkpt lat="45.82677" lon="4.81824">
        <ele>447.63098144531</ele>
        <time>2015-09-26T14:02:04Z</time>
      </trkpt>
      <trkpt lat="45.82664" lon="4.81863">
        <ele>449.5537109375</ele>
        <time>2015-09-26T14:02:19Z</time>
      </trkpt>
      <trkpt lat="45.82661" lon="4.81873">
        <ele>449.5537109375</ele>
        <time>2015-09-26T14:02:23Z</time>
      </trkpt>
      <trkpt lat="45.82646" lon="4.81925">
        <ele>452.91821289062</ele>
        <time>2015-09-26T14:02:41Z</time>
      </trkpt>
      <trkpt lat="45.82634" lon="4.8197">
        <ele>452.43762207031</ele>
        <time>2015-09-26T14:02:52Z</time>
      </trkpt>
      <trkpt lat="45.82622" lon="4.82028">
        <ele>452.43762207031</ele>
        <time>2015-09-26T14:03:00Z</time>
      </trkpt>
      <trkpt lat="45.82624" lon="4.82063">
        <ele>452.43762207031</ele>
        <time>2015-09-26T14:03:04Z</time>
      </trkpt>
      <trkpt lat="45.82633" lon="4.82096">
        <ele>452.91821289062</ele>
        <time>2015-09-26T14:03:09Z</time>
      </trkpt>
      <trkpt lat="45.82655" lon="4.82161">
        <ele>450.51501464844</ele>
        <time>2015-09-26T14:03:18Z</time>
      </trkpt>
      <trkpt lat="45.82662" lon="4.82181">
        <ele>450.03442382812</ele>
        <time>2015-09-26T14:03:21Z</time>
      </trkpt>
      <trkpt lat="45.82697" lon="4.82255">
        <ele>449.5537109375</ele>
        <time>2015-09-26T14:03:34Z</time>
      </trkpt>
      <trkpt lat="45.82704" lon="4.82267">
        <ele>449.07299804688</ele>
        <time>2015-09-26T14:03:36Z</time>
      </trkpt>
      <trkpt lat="45.82725" lon="4.82317">
        <ele>446.18908691406</ele>
        <time>2015-09-26T14:03:45Z</time>
      </trkpt>
      <trkpt lat="45.82742" lon="4.8238">
        <ele>441.38244628906</ele>
        <time>2015-09-26T14:03:57Z</time>
      </trkpt>
      <trkpt lat="45.82745" lon="4.82392">
        <ele>440.42126464844</ele>
        <time>2015-09-26T14:03:59Z</time>
      </trkpt>
      <trkpt lat="45.82758" lon="4.82432">
        <ele>435.61450195312</ele>
        <time>2015-09-26T14:04:04Z</time>
      </trkpt>
      <trkpt lat="45.82776" lon="4.82463">
        <ele>432.73071289062</ele>
        <time>2015-09-26T14:04:08Z</time>
      </trkpt>
      <trkpt lat="45.82782" lon="4.82482">
        <ele>429.84655761719</ele>
        <time>2015-09-26T14:04:11Z</time>
      </trkpt>
      <trkpt lat="45.82793" lon="4.82541">
        <ele>424.07873535156</ele>
        <time>2015-09-26T14:04:20Z</time>
      </trkpt>
      <trkpt lat="45.82793" lon="4.82543">
        <ele>423.59802246094</ele>
        <time>2015-09-26T14:04:21Z</time>
      </trkpt>
      <trkpt lat="45.8279" lon="4.82549">
        <ele>422.15600585938</ele>
        <time>2015-09-26T14:04:31Z</time>
      </trkpt>
      <trkpt lat="45.8279" lon="4.82549">
        <ele>421.67541503906</ele>
        <time>2015-09-26T14:05:01Z</time>
      </trkpt>
      <trkpt lat="45.82788" lon="4.82552">
        <ele>421.19482421875</ele>
        <time>2015-09-26T14:05:03Z</time>
      </trkpt>
      <trkpt lat="45.82791" lon="4.82597">
        <ele>414.46545410156</ele>
        <time>2015-09-26T14:05:09Z</time>
      </trkpt>
      <trkpt lat="45.82806" lon="4.8265">
        <ele>407.25561523438</ele>
        <time>2015-09-26T14:05:14Z</time>
      </trkpt>
      <trkpt lat="45.82794" lon="4.82722">
        <ele>396.20056152344</ele>
        <time>2015-09-26T14:05:23Z</time>
      </trkpt>
      <trkpt lat="45.82781" lon="4.82731">
        <ele>393.31652832031</ele>
        <time>2015-09-26T14:05:25Z</time>
      </trkpt>
      <trkpt lat="45.82751" lon="4.82743">
        <ele>388.029296875</ele>
        <time>2015-09-26T14:05:29Z</time>
      </trkpt>
      <trkpt lat="45.82728" lon="4.8274">
        <ele>386.10668945312</ele>
        <time>2015-09-26T14:05:32Z</time>
      </trkpt>
      <trkpt lat="45.82706" lon="4.82726">
        <ele>384.66479492188</ele>
        <time>2015-09-26T14:05:35Z</time>
      </trkpt>
      <trkpt lat="45.82667" lon="4.82688">
        <ele>374.09008789062</ele>
        <time>2015-09-26T14:05:44Z</time>
      </trkpt>
      <trkpt lat="45.82663" lon="4.82684">
        <ele>373.60949707031</ele>
        <time>2015-09-26T14:05:47Z</time>
      </trkpt>
      <trkpt lat="45.82659" lon="4.82682">
        <ele>372.16748046875</ele>
        <time>2015-09-26T14:05:51Z</time>
      </trkpt>
      <trkpt lat="45.82638" lon="4.82666">
        <ele>368.322265625</ele>
        <time>2015-09-26T14:06:04Z</time>
      </trkpt>
      <trkpt lat="45.82633" lon="4.82664">
        <ele>367.36096191406</ele>
        <time>2015-09-26T14:06:06Z</time>
      </trkpt>
      <trkpt lat="45.82609" lon="4.82651">
        <ele>362.55432128906</ele>
        <time>2015-09-26T14:06:11Z</time>
      </trkpt>
      <trkpt lat="45.82571" lon="4.82648">
        <ele>356.30578613281</ele>
        <time>2015-09-26T14:06:16Z</time>
      </trkpt>
      <trkpt lat="45.82549" lon="4.82682">
        <ele>349.09582519531</ele>
        <time>2015-09-26T14:06:21Z</time>
      </trkpt>
      <trkpt lat="45.82542" lon="4.82706">
        <ele>346.21203613281</ele>
        <time>2015-09-26T14:06:25Z</time>
      </trkpt>
      <trkpt lat="45.82552" lon="4.82708">
        <ele>345.73132324219</ele>
        <time>2015-09-26T14:06:36Z</time>
      </trkpt>
      <trkpt lat="45.82587" lon="4.8272">
        <ele>341.88598632812</ele>
        <time>2015-09-26T14:06:51Z</time>
      </trkpt>
      <trkpt lat="45.82636" lon="4.82738">
        <ele>340.44409179688</ele>
        <time>2015-09-26T14:07:09Z</time>
      </trkpt>
      <trkpt lat="45.82665" lon="4.82773">
        <ele>342.84729003906</ele>
        <time>2015-09-26T14:07:24Z</time>
      </trkpt>
      <trkpt lat="45.82664" lon="4.82774">
        <ele>343.32788085938</ele>
        <time>2015-09-26T14:07:41Z</time>
      </trkpt>
      <trkpt lat="45.82641" lon="4.82743">
        <ele>342.36669921875</ele>
        <time>2015-09-26T14:07:52Z</time>
      </trkpt>
      <trkpt lat="45.82625" lon="4.82731">
        <ele>341.4052734375</ele>
        <time>2015-09-26T14:07:56Z</time>
      </trkpt>
      <trkpt lat="45.82597" lon="4.8272">
        <ele>339.48266601562</ele>
        <time>2015-09-26T14:08:02Z</time>
      </trkpt>
      <trkpt lat="45.82542" lon="4.82702">
        <ele>338.04077148438</ele>
        <time>2015-09-26T14:08:14Z</time>
      </trkpt>
      <trkpt lat="45.82529" lon="4.82713">
        <ele>335.63732910156</ele>
        <time>2015-09-26T14:08:22Z</time>
      </trkpt>
      <trkpt lat="45.82521" lon="4.82713">
        <ele>336.1181640625</ele>
        <time>2015-09-26T14:08:25Z</time>
      </trkpt>
      <trkpt lat="45.82517" lon="4.82714">
        <ele>336.1181640625</ele>
        <time>2015-09-26T14:08:29Z</time>
      </trkpt>
      <trkpt lat="45.82523" lon="4.82712">
        <ele>335.63732910156</ele>
        <time>2015-09-26T14:08:32Z</time>
      </trkpt>
      <trkpt lat="45.82528" lon="4.8272">
        <ele>334.67614746094</ele>
        <time>2015-09-26T14:08:36Z</time>
      </trkpt>
      <trkpt lat="45.8253" lon="4.8273">
        <ele>333.23413085938</ele>
        <time>2015-09-26T14:08:38Z</time>
      </trkpt>
      <trkpt lat="45.82534" lon="4.82746">
        <ele>331.79211425781</ele>
        <time>2015-09-26T14:08:40Z</time>
      </trkpt>
      <trkpt lat="45.8254" lon="4.82791">
        <ele>326.98559570312</ele>
        <time>2015-09-26T14:08:44Z</time>
      </trkpt>
      <trkpt lat="45.82558" lon="4.82849">
        <ele>321.2177734375</ele>
        <time>2015-09-26T14:08:50Z</time>
      </trkpt>
      <trkpt lat="45.8255" lon="4.82915">
        <ele>313.52722167969</ele>
        <time>2015-09-26T14:08:57Z</time>
      </trkpt>
      <trkpt lat="45.82543" lon="4.82926">
        <ele>311.6044921875</ele>
        <time>2015-09-26T14:08:59Z</time>
      </trkpt>
      <trkpt lat="45.82546" lon="4.82939">
        <ele>309.68188476562</ele>
        <time>2015-09-26T14:09:03Z</time>
      </trkpt>
      <trkpt lat="45.82552" lon="4.82944">
        <ele>308.72045898438</ele>
        <time>2015-09-26T14:09:05Z</time>
      </trkpt>
      <trkpt lat="45.82568" lon="4.8295">
        <ele>307.27856445312</ele>
        <time>2015-09-26T14:09:08Z</time>
      </trkpt>
      <trkpt lat="45.82592" lon="4.82965">
        <ele>305.83666992188</ele>
        <time>2015-09-26T14:09:12Z</time>
      </trkpt>
      <trkpt lat="45.8261" lon="4.82999">
        <ele>301.51062011719</ele>
        <time>2015-09-26T14:09:17Z</time>
      </trkpt>
      <trkpt lat="45.8261" lon="4.83005">
        <ele>300.54931640625</ele>
        <time>2015-09-26T14:09:24Z</time>
      </trkpt>
      <trkpt lat="45.82614" lon="4.83024">
        <ele>297.18469238281</ele>
        <time>2015-09-26T14:09:28Z</time>
      </trkpt>
      <trkpt lat="45.82615" lon="4.83047">
        <ele>294.30078125</ele>
        <time>2015-09-26T14:09:35Z</time>
      </trkpt>
      <trkpt lat="45.82615" lon="4.83086">
        <ele>290.45556640625</ele>
        <time>2015-09-26T14:09:43Z</time>
      </trkpt>
      <trkpt lat="45.82631" lon="4.83108">
        <ele>289.494140625</ele>
        <time>2015-09-26T14:09:47Z</time>
      </trkpt>
      <trkpt lat="45.82645" lon="4.83112">
        <ele>289.97485351562</ele>
        <time>2015-09-26T14:09:50Z</time>
      </trkpt>
      <trkpt lat="45.82722" lon="4.8315">
        <ele>288.05224609375</ele>
        <time>2015-09-26T14:10:08Z</time>
      </trkpt>
      <trkpt lat="45.82765" lon="4.83163">
        <ele>290.93615722656</ele>
        <time>2015-09-26T14:10:21Z</time>
      </trkpt>
      <trkpt lat="45.82769" lon="4.83162">
        <ele>291.8974609375</ele>
        <time>2015-09-26T14:10:25Z</time>
      </trkpt>
      <trkpt lat="45.8277" lon="4.83149">
        <ele>292.37817382812</ele>
        <time>2015-09-26T14:10:30Z</time>
      </trkpt>
      <trkpt lat="45.82778" lon="4.83114">
        <ele>297.66540527344</ele>
        <time>2015-09-26T14:10:40Z</time>
      </trkpt>
      <trkpt lat="45.82793" lon="4.83111">
        <ele>299.10729980469</ele>
        <time>2015-09-26T14:10:51Z</time>
      </trkpt>
      <trkpt lat="45.82794" lon="4.8311">
        <ele>299.58801269531</ele>
        <time>2015-09-26T14:10:52Z</time>
      </trkpt>
      <trkpt lat="45.82815" lon="4.83112">
        <ele>298.62670898438</ele>
        <time>2015-09-26T14:11:06Z</time>
      </trkpt>
      <trkpt lat="45.82861" lon="4.83119">
        <ele>303.91394042969</ele>
        <time>2015-09-26T14:11:24Z</time>
      </trkpt>
      <trkpt lat="45.82908" lon="4.83125">
        <ele>308.23986816406</ele>
        <time>2015-09-26T14:11:39Z</time>
      </trkpt>
      <trkpt lat="45.82965" lon="4.83121">
        <ele>311.6044921875</ele>
        <time>2015-09-26T14:11:55Z</time>
      </trkpt>
      <trkpt lat="45.83015" lon="4.83097">
        <ele>313.52722167969</ele>
        <time>2015-09-26T14:12:09Z</time>
      </trkpt>
      <trkpt lat="45.8303" lon="4.83084">
        <ele>314.48840332031</ele>
        <time>2015-09-26T14:12:15Z</time>
      </trkpt>
      <trkpt lat="45.83037" lon="4.83062">
        <ele>314.48840332031</ele>
        <time>2015-09-26T14:12:25Z</time>
      </trkpt>
      <trkpt lat="45.83037" lon="4.83062">
        <ele>314.48840332031</ele>
        <time>2015-09-26T14:12:26Z</time>
      </trkpt>
      <trkpt lat="45.83033" lon="4.83075">
        <ele>311.12377929688</ele>
        <time>2015-09-26T14:12:32Z</time>
      </trkpt>
      <trkpt lat="45.83034" lon="4.83081">
        <ele>311.6044921875</ele>
        <time>2015-09-26T14:12:45Z</time>
      </trkpt>
      <trkpt lat="45.83034" lon="4.83081">
        <ele>312.08520507812</ele>
        <time>2015-09-26T14:12:53Z</time>
      </trkpt>
      <trkpt lat="45.83036" lon="4.8308">
        <ele>311.12377929688</ele>
        <time>2015-09-26T14:12:55Z</time>
      </trkpt>
      <trkpt lat="45.83076" lon="4.83088">
        <ele>305.83666992188</ele>
        <time>2015-09-26T14:13:04Z</time>
      </trkpt>
      <trkpt lat="45.8312" lon="4.83095">
        <ele>303.91394042969</ele>
        <time>2015-09-26T14:13:12Z</time>
      </trkpt>
      <trkpt lat="45.83123" lon="4.83096">
        <ele>302.95251464844</ele>
        <time>2015-09-26T14:13:13Z</time>
      </trkpt>
      <trkpt lat="45.83137" lon="4.83068">
        <ele>299.58801269531</ele>
        <time>2015-09-26T14:13:19Z</time>
      </trkpt>
      <trkpt lat="45.83138" lon="4.8306">
        <ele>298.62670898438</ele>
        <time>2015-09-26T14:13:20Z</time>
      </trkpt>
      <trkpt lat="45.83153" lon="4.82984">
        <ele>292.85876464844</ele>
        <time>2015-09-26T14:13:28Z</time>
      </trkpt>
      <trkpt lat="45.83189" lon="4.82903">
        <ele>292.37817382812</ele>
        <time>2015-09-26T14:13:37Z</time>
      </trkpt>
      <trkpt lat="45.83194" lon="4.82888">
        <ele>291.8974609375</ele>
        <time>2015-09-26T14:13:39Z</time>
      </trkpt>
      <trkpt lat="45.83212" lon="4.82844">
        <ele>291.41674804688</ele>
        <time>2015-09-26T14:13:50Z</time>
      </trkpt>
      <trkpt lat="45.83214" lon="4.82825">
        <ele>290.45556640625</ele>
        <time>2015-09-26T14:14:00Z</time>
      </trkpt>
      <trkpt lat="45.83213" lon="4.8279">
        <ele>292.85876464844</ele>
        <time>2015-09-26T14:14:08Z</time>
      </trkpt>
      <trkpt lat="45.8323" lon="4.82691">
        <ele>292.85876464844</ele>
        <time>2015-09-26T14:14:23Z</time>
      </trkpt>
      <trkpt lat="45.8324" lon="4.8266">
        <ele>296.22351074219</ele>
        <time>2015-09-26T14:14:28Z</time>
      </trkpt>
      <trkpt lat="45.83255" lon="4.82641">
        <ele>296.7041015625</ele>
        <time>2015-09-26T14:14:32Z</time>
      </trkpt>
      <trkpt lat="45.83272" lon="4.82614">
        <ele>297.18469238281</ele>
        <time>2015-09-26T14:14:37Z</time>
      </trkpt>
      <trkpt lat="45.83279" lon="4.82588">
        <ele>297.66540527344</ele>
        <time>2015-09-26T14:14:41Z</time>
      </trkpt>
      <trkpt lat="45.83281" lon="4.82564">
        <ele>297.66540527344</ele>
        <time>2015-09-26T14:14:45Z</time>
      </trkpt>
      <trkpt lat="45.8328" lon="4.82545">
        <ele>296.22351074219</ele>
        <time>2015-09-26T14:14:48Z</time>
      </trkpt>
      <trkpt lat="45.83282" lon="4.82532">
        <ele>296.22351074219</ele>
        <time>2015-09-26T14:14:50Z</time>
      </trkpt>
      <trkpt lat="45.83322" lon="4.82422">
        <ele>295.74267578125</ele>
        <time>2015-09-26T14:15:07Z</time>
      </trkpt>
      <trkpt lat="45.83347" lon="4.8234">
        <ele>294.30078125</ele>
        <time>2015-09-26T14:15:20Z</time>
      </trkpt>
      <trkpt lat="45.83346" lon="4.82318">
        <ele>295.74267578125</ele>
        <time>2015-09-26T14:15:24Z</time>
      </trkpt>
      <trkpt lat="45.8334" lon="4.82302">
        <ele>295.74267578125</ele>
        <time>2015-09-26T14:15:27Z</time>
      </trkpt>
      <trkpt lat="45.83328" lon="4.82284">
        <ele>296.22351074219</ele>
        <time>2015-09-26T14:15:31Z</time>
      </trkpt>
      <trkpt lat="45.83287" lon="4.82243">
        <ele>294.30078125</ele>
        <time>2015-09-26T14:15:41Z</time>
      </trkpt>
      <trkpt lat="45.83258" lon="4.82187">
        <ele>291.41674804688</ele>
        <time>2015-09-26T14:15:47Z</time>
      </trkpt>
      <trkpt lat="45.83224" lon="4.82137">
        <ele>287.57141113281</ele>
        <time>2015-09-26T14:15:52Z</time>
      </trkpt>
      <trkpt lat="45.83196" lon="4.82047">
        <ele>284.20690917969</ele>
        <time>2015-09-26T14:15:59Z</time>
      </trkpt>
      <trkpt lat="45.83205" lon="4.82032">
        <ele>281.80358886719</ele>
        <time>2015-09-26T14:16:04Z</time>
      </trkpt>
      <trkpt lat="45.83207" lon="4.82039">
        <ele>281.80358886719</ele>
        <time>2015-09-26T14:16:05Z</time>
      </trkpt>
      <trkpt lat="45.8321" lon="4.82052">
        <ele>281.80358886719</ele>
        <time>2015-09-26T14:16:07Z</time>
      </trkpt>
      <trkpt lat="45.8326" lon="4.82108">
        <ele>275.07446289062</ele>
        <time>2015-09-26T14:16:17Z</time>
      </trkpt>
      <trkpt lat="45.83272" lon="4.8212">
        <ele>273.63244628906</ele>
        <time>2015-09-26T14:16:19Z</time>
      </trkpt>
      <trkpt lat="45.83307" lon="4.82153">
        <ele>270.74841308594</ele>
        <time>2015-09-26T14:16:27Z</time>
      </trkpt>
      <trkpt lat="45.83307" lon="4.82151">
        <ele>271.22912597656</ele>
        <time>2015-09-26T14:16:28Z</time>
      </trkpt>
      <trkpt lat="45.83303" lon="4.82144">
        <ele>269.787109375</ele>
        <time>2015-09-26T14:16:32Z</time>
      </trkpt>
      <trkpt lat="45.833" lon="4.8213">
        <ele>267.86450195312</ele>
        <time>2015-09-26T14:16:41Z</time>
      </trkpt>
      <trkpt lat="45.83298" lon="4.8213">
        <ele>268.34509277344</ele>
        <time>2015-09-26T14:16:44Z</time>
      </trkpt>
      <trkpt lat="45.83308" lon="4.82158">
        <ele>267.38391113281</ele>
        <time>2015-09-26T14:16:58Z</time>
      </trkpt>
      <trkpt lat="45.83326" lon="4.82179">
        <ele>264.98059082031</ele>
        <time>2015-09-26T14:17:05Z</time>
      </trkpt>
      <trkpt lat="45.8335" lon="4.82213">
        <ele>259.693359375</ele>
        <time>2015-09-26T14:17:11Z</time>
      </trkpt>
      <trkpt lat="45.83365" lon="4.82235">
        <ele>258.25134277344</ele>
        <time>2015-09-26T14:17:14Z</time>
      </trkpt>
      <trkpt lat="45.83392" lon="4.82273">
        <ele>255.36730957031</ele>
        <time>2015-09-26T14:17:19Z</time>
      </trkpt>
      <trkpt lat="45.83426" lon="4.82296">
        <ele>250.08020019531</ele>
        <time>2015-09-26T14:17:24Z</time>
      </trkpt>
      <trkpt lat="45.83451" lon="4.82333">
        <ele>246.23486328125</ele>
        <time>2015-09-26T14:17:30Z</time>
      </trkpt>
      <trkpt lat="45.83472" lon="4.82368">
        <ele>242.87023925781</ele>
        <time>2015-09-26T14:17:38Z</time>
      </trkpt>
      <trkpt lat="45.83524" lon="4.82372">
        <ele>236.14099121094</ele>
        <time>2015-09-26T14:17:46Z</time>
      </trkpt>
      <trkpt lat="45.83535" lon="4.82376">
        <ele>234.69909667969</ele>
        <time>2015-09-26T14:17:48Z</time>
      </trkpt>
      <trkpt lat="45.83542" lon="4.8237">
        <ele>234.21838378906</ele>
        <time>2015-09-26T14:17:57Z</time>
      </trkpt>
      <trkpt lat="45.83541" lon="4.82371">
        <ele>234.21838378906</ele>
        <time>2015-09-26T14:18:25Z</time>
      </trkpt>
      <trkpt lat="45.8354" lon="4.82371">
        <ele>233.73767089844</ele>
        <time>2015-09-26T14:18:57Z</time>
      </trkpt>
      <trkpt lat="45.83532" lon="4.8237">
        <ele>234.21838378906</ele>
        <time>2015-09-26T14:19:02Z</time>
      </trkpt>
      <trkpt lat="45.83529" lon="4.82368">
        <ele>234.69909667969</ele>
        <time>2015-09-26T14:19:05Z</time>
      </trkpt>
      <trkpt lat="45.83525" lon="4.82368">
        <ele>235.1796875</ele>
        <time>2015-09-26T14:19:07Z</time>
      </trkpt>
      <trkpt lat="45.8352" lon="4.82366">
        <ele>235.66027832031</ele>
        <time>2015-09-26T14:19:11Z</time>
      </trkpt>
      <trkpt lat="45.83523" lon="4.82369">
        <ele>235.1796875</ele>
        <time>2015-09-26T14:19:14Z</time>
      </trkpt>
      <trkpt lat="45.83519" lon="4.82367">
        <ele>236.14099121094</ele>
        <time>2015-09-26T14:19:19Z</time>
      </trkpt>
      <trkpt lat="45.83518" lon="4.82369">
        <ele>236.14099121094</ele>
        <time>2015-09-26T14:19:21Z</time>
      </trkpt>
      <trkpt lat="45.83514" lon="4.82369">
        <ele>236.62170410156</ele>
        <time>2015-09-26T14:19:23Z</time>
      </trkpt>
      <trkpt lat="45.8351" lon="4.82369">
        <ele>236.62170410156</ele>
        <time>2015-09-26T14:19:26Z</time>
      </trkpt>
      <trkpt lat="45.83478" lon="4.82366">
        <ele>240.46704101562</ele>
        <time>2015-09-26T14:19:44Z</time>
      </trkpt>
      <trkpt lat="45.83471" lon="4.82363">
        <ele>241.90893554688</ele>
        <time>2015-09-26T14:19:48Z</time>
      </trkpt>
      <trkpt lat="45.83446" lon="4.82317">
        <ele>245.2734375</ele>
        <time>2015-09-26T14:20:09Z</time>
      </trkpt>
      <trkpt lat="45.83417" lon="4.82289">
        <ele>248.63818359375</ele>
        <time>2015-09-26T14:20:25Z</time>
      </trkpt>
      <trkpt lat="45.83389" lon="4.82268">
        <ele>252.4833984375</ele>
        <time>2015-09-26T14:20:39Z</time>
      </trkpt>
      <trkpt lat="45.83378" lon="4.8225">
        <ele>254.88659667969</ele>
        <time>2015-09-26T14:20:47Z</time>
      </trkpt>
      <trkpt lat="45.83354" lon="4.82223">
        <ele>255.84802246094</ele>
        <time>2015-09-26T14:21:00Z</time>
      </trkpt>
      <trkpt lat="45.83331" lon="4.82189">
        <ele>258.73193359375</ele>
        <time>2015-09-26T14:21:16Z</time>
      </trkpt>
      <trkpt lat="45.83309" lon="4.82164">
        <ele>259.693359375</ele>
        <time>2015-09-26T14:21:30Z</time>
      </trkpt>
      <trkpt lat="45.83307" lon="4.82162">
        <ele>259.693359375</ele>
        <time>2015-09-26T14:21:31Z</time>
      </trkpt>
      <trkpt lat="45.83301" lon="4.82158">
        <ele>259.21264648438</ele>
        <time>2015-09-26T14:21:41Z</time>
      </trkpt>
      <trkpt lat="45.83301" lon="4.82158">
        <ele>258.73193359375</ele>
        <time>2015-09-26T14:21:49Z</time>
      </trkpt>
      <trkpt lat="45.83305" lon="4.8216">
        <ele>258.73193359375</ele>
        <time>2015-09-26T14:21:53Z</time>
      </trkpt>
      <trkpt lat="45.83304" lon="4.8216">
        <ele>258.73193359375</ele>
        <time>2015-09-26T14:22:00Z</time>
      </trkpt>
      <trkpt lat="45.83306" lon="4.8216">
        <ele>258.25134277344</ele>
        <time>2015-09-26T14:22:01Z</time>
      </trkpt>
      <trkpt lat="45.83312" lon="4.82161">
        <ele>256.32873535156</ele>
        <time>2015-09-26T14:22:04Z</time>
      </trkpt>
      <trkpt lat="45.83324" lon="4.82162">
        <ele>253.44470214844</ele>
        <time>2015-09-26T14:22:09Z</time>
      </trkpt>
      <trkpt lat="45.8335" lon="4.82157">
        <ele>248.15759277344</ele>
        <time>2015-09-26T14:22:18Z</time>
      </trkpt>
      <trkpt lat="45.83362" lon="4.82147">
        <ele>244.31225585938</ele>
        <time>2015-09-26T14:22:22Z</time>
      </trkpt>
      <trkpt lat="45.83385" lon="4.8211">
        <ele>231.81494140625</ele>
        <time>2015-09-26T14:22:35Z</time>
      </trkpt>
      <trkpt lat="45.83401" lon="4.82081">
        <ele>226.04711914062</ele>
        <time>2015-09-26T14:22:45Z</time>
      </trkpt>
      <trkpt lat="45.83402" lon="4.82082">
        <ele>226.04711914062</ele>
        <time>2015-09-26T14:23:48Z</time>
      </trkpt>
      <trkpt lat="45.83402" lon="4.82082">
        <ele>226.04711914062</ele>
        <time>2015-09-26T14:24:10Z</time>
      </trkpt>
      <trkpt lat="45.83402" lon="4.82082">
        <ele>226.04711914062</ele>
        <time>2015-09-26T14:24:15Z</time>
      </trkpt>
      <trkpt lat="45.83411" lon="4.82088">
        <ele>225.56652832031</ele>
        <time>2015-09-26T14:24:19Z</time>
      </trkpt>
      <trkpt lat="45.83424" lon="4.82076">
        <ele>226.04711914062</ele>
        <time>2015-09-26T14:24:24Z</time>
      </trkpt>
      <trkpt lat="45.83425" lon="4.82062">
        <ele>227.00854492188</ele>
        <time>2015-09-26T14:24:30Z</time>
      </trkpt>
      <trkpt lat="45.83424" lon="4.82049">
        <ele>228.45043945312</ele>
        <time>2015-09-26T14:24:36Z</time>
      </trkpt>
      <trkpt lat="45.83423" lon="4.82016">
        <ele>232.77648925781</ele>
        <time>2015-09-26T14:24:52Z</time>
      </trkpt>
      <trkpt lat="45.83424" lon="4.82005">
        <ele>234.21838378906</ele>
        <time>2015-09-26T14:24:57Z</time>
      </trkpt>
      <trkpt lat="45.83418" lon="4.81997">
        <ele>236.62170410156</ele>
        <time>2015-09-26T14:25:10Z</time>
      </trkpt>
      <trkpt lat="45.83416" lon="4.81996">
        <ele>237.10229492188</ele>
        <time>2015-09-26T14:25:33Z</time>
      </trkpt>
      <trkpt lat="45.83417" lon="4.81994">
        <ele>236.14099121094</ele>
        <time>2015-09-26T14:28:38Z</time>
      </trkpt>
      <trkpt lat="45.83408" lon="4.81977">
        <ele>239.98620605469</ele>
        <time>2015-09-26T14:29:51Z</time>
      </trkpt>
      <trkpt lat="45.83402" lon="4.81966">
        <ele>241.42822265625</ele>
        <time>2015-09-26T14:30:03Z</time>
      </trkpt>
      <trkpt lat="45.83391" lon="4.81932">
        <ele>246.71545410156</ele>
        <time>2015-09-26T14:30:22Z</time>
      </trkpt>
      <trkpt lat="45.83389" lon="4.81903">
        <ele>252.96398925781</ele>
        <time>2015-09-26T14:30:37Z</time>
      </trkpt>
      <trkpt lat="45.83389" lon="4.81899">
        <ele>253.44470214844</ele>
        <time>2015-09-26T14:30:50Z</time>
      </trkpt>
      <trkpt lat="45.83389" lon="4.81881">
        <ele>257.2900390625</ele>
        <time>2015-09-26T14:31:11Z</time>
      </trkpt>
      <trkpt lat="45.83389" lon="4.81862">
        <ele>262.09655761719</ele>
        <time>2015-09-26T14:31:28Z</time>
      </trkpt>
      <trkpt lat="45.83388" lon="4.81849">
        <ele>267.38391113281</ele>
        <time>2015-09-26T14:31:43Z</time>
      </trkpt>
      <trkpt lat="45.83388" lon="4.81835">
        <ele>271.70971679688</ele>
        <time>2015-09-26T14:31:57Z</time>
      </trkpt>
      <trkpt lat="45.83389" lon="4.81823">
        <ele>275.07446289062</ele>
        <time>2015-09-26T14:32:08Z</time>
      </trkpt>
      <trkpt lat="45.83391" lon="4.81808">
        <ele>277.47766113281</ele>
        <time>2015-09-26T14:32:22Z</time>
      </trkpt>
      <trkpt lat="45.83393" lon="4.81799">
        <ele>277.47766113281</ele>
        <time>2015-09-26T14:32:35Z</time>
      </trkpt>
      <trkpt lat="45.83388" lon="4.81791">
        <ele>277.95825195312</ele>
        <time>2015-09-26T14:32:49Z</time>
      </trkpt>
      <trkpt lat="45.83377" lon="4.81774">
        <ele>280.36169433594</ele>
        <time>2015-09-26T14:33:00Z</time>
      </trkpt>
      <trkpt lat="45.83382" lon="4.81766">
        <ele>281.80358886719</ele>
        <time>2015-09-26T14:33:07Z</time>
      </trkpt>
      <trkpt lat="45.83398" lon="4.81762">
        <ele>283.24560546875</ele>
        <time>2015-09-26T14:33:15Z</time>
      </trkpt>
      <trkpt lat="45.83435" lon="4.81756">
        <ele>286.12951660156</ele>
        <time>2015-09-26T14:33:33Z</time>
      </trkpt>
      <trkpt lat="45.83471" lon="4.81747">
        <ele>289.97485351562</ele>
        <time>2015-09-26T14:33:50Z</time>
      </trkpt>
      <trkpt lat="45.83481" lon="4.81747">
        <ele>290.45556640625</ele>
        <time>2015-09-26T14:33:54Z</time>
      </trkpt>
      <trkpt lat="45.8348" lon="4.81737">
        <ele>290.93615722656</ele>
        <time>2015-09-26T14:34:01Z</time>
      </trkpt>
      <trkpt lat="45.83451" lon="4.81729">
        <ele>295.26196289062</ele>
        <time>2015-09-26T14:34:18Z</time>
      </trkpt>
      <trkpt lat="45.83418" lon="4.81713">
        <ele>298.14611816406</ele>
        <time>2015-09-26T14:34:39Z</time>
      </trkpt>
      <trkpt lat="45.83393" lon="4.81696">
        <ele>300.54931640625</ele>
        <time>2015-09-26T14:34:55Z</time>
      </trkpt>
      <trkpt lat="45.83381" lon="4.81671">
        <ele>302.95251464844</ele>
        <time>2015-09-26T14:35:08Z</time>
      </trkpt>
      <trkpt lat="45.83366" lon="4.81639">
        <ele>306.31726074219</ele>
        <time>2015-09-26T14:35:25Z</time>
      </trkpt>
      <trkpt lat="45.83362" lon="4.81622">
        <ele>307.75927734375</ele>
        <time>2015-09-26T14:35:32Z</time>
      </trkpt>
      <trkpt lat="45.83346" lon="4.81578">
        <ele>311.6044921875</ele>
        <time>2015-09-26T14:35:54Z</time>
      </trkpt>
      <trkpt lat="45.83345" lon="4.81571">
        <ele>311.6044921875</ele>
        <time>2015-09-26T14:35:57Z</time>
      </trkpt>
      <trkpt lat="45.8333" lon="4.8154">
        <ele>317.37243652344</ele>
        <time>2015-09-26T14:36:15Z</time>
      </trkpt>
      <trkpt lat="45.83327" lon="4.81513">
        <ele>322.17895507812</ele>
        <time>2015-09-26T14:36:29Z</time>
      </trkpt>
      <trkpt lat="45.83327" lon="4.81507">
        <ele>323.14038085938</ele>
        <time>2015-09-26T14:36:40Z</time>
      </trkpt>
      <trkpt lat="45.83322" lon="4.81474">
        <ele>326.98559570312</ele>
        <time>2015-09-26T14:36:59Z</time>
      </trkpt>
      <trkpt lat="45.83316" lon="4.81445">
        <ele>327.94677734375</ele>
        <time>2015-09-26T14:37:14Z</time>
      </trkpt>
      <trkpt lat="45.83316" lon="4.81437">
        <ele>327.94677734375</ele>
        <time>2015-09-26T14:37:17Z</time>
      </trkpt>
      <trkpt lat="45.83307" lon="4.81403">
        <ele>329.38891601562</ele>
        <time>2015-09-26T14:37:30Z</time>
      </trkpt>
      <trkpt lat="45.83303" lon="4.81396">
        <ele>330.83093261719</ele>
        <time>2015-09-26T14:37:33Z</time>
      </trkpt>
      <trkpt lat="45.83297" lon="4.8138">
        <ele>333.23413085938</ele>
        <time>2015-09-26T14:37:42Z</time>
      </trkpt>
      <trkpt lat="45.83292" lon="4.81369">
        <ele>334.19543457031</ele>
        <time>2015-09-26T14:37:49Z</time>
      </trkpt>
      <trkpt lat="45.83284" lon="4.81351">
        <ele>333.71472167969</ele>
        <time>2015-09-26T14:37:59Z</time>
      </trkpt>
      <trkpt lat="45.83274" lon="4.81341">
        <ele>336.1181640625</ele>
        <time>2015-09-26T14:38:07Z</time>
      </trkpt>
      <trkpt lat="45.83267" lon="4.81334">
        <ele>338.04077148438</ele>
        <time>2015-09-26T14:38:12Z</time>
      </trkpt>
      <trkpt lat="45.83265" lon="4.81324">
        <ele>340.44409179688</ele>
        <time>2015-09-26T14:38:18Z</time>
      </trkpt>
      <trkpt lat="45.83259" lon="4.81316">
        <ele>340.44409179688</ele>
        <time>2015-09-26T14:38:23Z</time>
      </trkpt>
      <trkpt lat="45.83259" lon="4.81313">
        <ele>340.92468261719</ele>
        <time>2015-09-26T14:38:25Z</time>
      </trkpt>
      <trkpt lat="45.83255" lon="4.81306">
        <ele>343.80859375</ele>
        <time>2015-09-26T14:38:29Z</time>
      </trkpt>
      <trkpt lat="45.83252" lon="4.81292">
        <ele>345.25061035156</ele>
        <time>2015-09-26T14:38:35Z</time>
      </trkpt>
      <trkpt lat="45.83248" lon="4.81284">
        <ele>347.65393066406</ele>
        <time>2015-09-26T14:38:40Z</time>
      </trkpt>
      <trkpt lat="45.83245" lon="4.81281">
        <ele>348.13464355469</ele>
        <time>2015-09-26T14:38:43Z</time>
      </trkpt>
      <trkpt lat="45.83243" lon="4.81275">
        <ele>349.57653808594</ele>
        <time>2015-09-26T14:38:48Z</time>
      </trkpt>
      <trkpt lat="45.8324" lon="4.81267">
        <ele>349.09582519531</ele>
        <time>2015-09-26T14:38:53Z</time>
      </trkpt>
      <trkpt lat="45.8324" lon="4.81257">
        <ele>351.01843261719</ele>
        <time>2015-09-26T14:38:59Z</time>
      </trkpt>
      <trkpt lat="45.83237" lon="4.81233">
        <ele>352.94116210938</ele>
        <time>2015-09-26T14:39:13Z</time>
      </trkpt>
      <trkpt lat="45.83239" lon="4.81203">
        <ele>358.22839355469</ele>
        <time>2015-09-26T14:39:30Z</time>
      </trkpt>
      <trkpt lat="45.83239" lon="4.81181">
        <ele>361.59313964844</ele>
        <time>2015-09-26T14:39:42Z</time>
      </trkpt>
      <trkpt lat="45.83236" lon="4.81175">
        <ele>362.55432128906</ele>
        <time>2015-09-26T14:39:46Z</time>
      </trkpt>
      <trkpt lat="45.8324" lon="4.81149">
        <ele>362.55432128906</ele>
        <time>2015-09-26T14:40:02Z</time>
      </trkpt>
      <trkpt lat="45.83244" lon="4.81143">
        <ele>363.99633789062</ele>
        <time>2015-09-26T14:40:07Z</time>
      </trkpt>
      <trkpt lat="45.83243" lon="4.81109">
        <ele>370.7255859375</ele>
        <time>2015-09-26T14:40:22Z</time>
      </trkpt>
      <trkpt lat="45.83238" lon="4.81094">
        <ele>374.09008789062</ele>
        <time>2015-09-26T14:40:28Z</time>
      </trkpt>
      <trkpt lat="45.83231" lon="4.81091">
        <ele>376.01281738281</ele>
        <time>2015-09-26T14:40:32Z</time>
      </trkpt>
      <trkpt lat="45.83209" lon="4.81086">
        <ele>375.53210449219</ele>
        <time>2015-09-26T14:40:44Z</time>
      </trkpt>
      <trkpt lat="45.83196" lon="4.8108">
        <ele>376.49353027344</ele>
        <time>2015-09-26T14:40:51Z</time>
      </trkpt>
      <trkpt lat="45.83176" lon="4.81074">
        <ele>379.37744140625</ele>
        <time>2015-09-26T14:41:04Z</time>
      </trkpt>
      <trkpt lat="45.83174" lon="4.81073">
        <ele>379.37744140625</ele>
        <time>2015-09-26T14:41:06Z</time>
      </trkpt>
      <trkpt lat="45.83169" lon="4.81064">
        <ele>380.81945800781</ele>
        <time>2015-09-26T14:41:13Z</time>
      </trkpt>
      <trkpt lat="45.83164" lon="4.81055">
        <ele>381.78063964844</ele>
        <time>2015-09-26T14:41:19Z</time>
      </trkpt>
      <trkpt lat="45.83158" lon="4.81045">
        <ele>385.14538574219</ele>
        <time>2015-09-26T14:41:25Z</time>
      </trkpt>
      <trkpt lat="45.83155" lon="4.81039">
        <ele>386.10668945312</ele>
        <time>2015-09-26T14:41:29Z</time>
      </trkpt>
      <trkpt lat="45.83152" lon="4.81032">
        <ele>388.029296875</ele>
        <time>2015-09-26T14:41:33Z</time>
      </trkpt>
      <trkpt lat="45.83146" lon="4.81006">
        <ele>388.51000976562</ele>
        <time>2015-09-26T14:41:47Z</time>
      </trkpt>
      <trkpt lat="45.83146" lon="4.80993">
        <ele>389.47119140625</ele>
        <time>2015-09-26T14:41:53Z</time>
      </trkpt>
      <trkpt lat="45.83144" lon="4.80985">
        <ele>390.4326171875</ele>
        <time>2015-09-26T14:41:57Z</time>
      </trkpt>
      <trkpt lat="45.8313" lon="4.80988">
        <ele>391.39379882812</ele>
        <time>2015-09-26T14:42:07Z</time>
      </trkpt>
      <trkpt lat="45.83114" lon="4.80991">
        <ele>393.31652832031</ele>
        <time>2015-09-26T14:42:15Z</time>
      </trkpt>
      <trkpt lat="45.83089" lon="4.81026">
        <ele>393.31652832031</ele>
        <time>2015-09-26T14:42:30Z</time>
      </trkpt>
      <trkpt lat="45.83054" lon="4.81057">
        <ele>399.56506347656</ele>
        <time>2015-09-26T14:42:48Z</time>
      </trkpt>
      <trkpt lat="45.83023" lon="4.81069">
        <ele>401.48779296875</ele>
        <time>2015-09-26T14:43:03Z</time>
      </trkpt>
      <trkpt lat="45.82982" lon="4.81085">
        <ele>401.96850585938</ele>
        <time>2015-09-26T14:43:21Z</time>
      </trkpt>
      <trkpt lat="45.82975" lon="4.81087">
        <ele>402.44909667969</ele>
        <time>2015-09-26T14:43:24Z</time>
      </trkpt>
      <trkpt lat="45.82941" lon="4.81103">
        <ele>405.3330078125</ele>
        <time>2015-09-26T14:43:39Z</time>
      </trkpt>
      <trkpt lat="45.82909" lon="4.81109">
        <ele>405.81372070312</ele>
        <time>2015-09-26T14:43:53Z</time>
      </trkpt>
      <trkpt lat="45.82889" lon="4.81116">
        <ele>406.29431152344</ele>
        <time>2015-09-26T14:44:04Z</time>
      </trkpt>
      <trkpt lat="45.82875" lon="4.81112">
        <ele>406.29431152344</ele>
        <time>2015-09-26T14:44:11Z</time>
      </trkpt>
      <trkpt lat="45.82869" lon="4.81107">
        <ele>405.81372070312</ele>
        <time>2015-09-26T14:44:14Z</time>
      </trkpt>
      <trkpt lat="45.82861" lon="4.81111">
        <ele>405.81372070312</ele>
        <time>2015-09-26T14:44:18Z</time>
      </trkpt>
      <trkpt lat="45.82821" lon="4.81164">
        <ele>405.3330078125</ele>
        <time>2015-09-26T14:44:33Z</time>
      </trkpt>
      <trkpt lat="45.828" lon="4.81232">
        <ele>407.25561523438</ele>
        <time>2015-09-26T14:44:48Z</time>
      </trkpt>
      <trkpt lat="45.82787" lon="4.81311">
        <ele>411.10095214844</ele>
        <time>2015-09-26T14:45:07Z</time>
      </trkpt>
      <trkpt lat="45.82775" lon="4.81383">
        <ele>414.94616699219</ele>
        <time>2015-09-26T14:45:27Z</time>
      </trkpt>
      <trkpt lat="45.82774" lon="4.81394">
        <ele>415.42687988281</ele>
        <time>2015-09-26T14:45:31Z</time>
      </trkpt>
      <trkpt lat="45.82771" lon="4.81424">
        <ele>418.31079101562</ele>
        <time>2015-09-26T14:45:43Z</time>
      </trkpt>
      <trkpt lat="45.82765" lon="4.81455">
        <ele>420.71411132812</ele>
        <time>2015-09-26T14:45:56Z</time>
      </trkpt>
      <trkpt lat="45.82752" lon="4.81495">
        <ele>426.96276855469</ele>
        <time>2015-09-26T14:46:13Z</time>
      </trkpt>
      <trkpt lat="45.82751" lon="4.81503">
        <ele>427.92395019531</ele>
        <time>2015-09-26T14:46:16Z</time>
      </trkpt>
      <trkpt lat="45.82751" lon="4.81515">
        <ele>428.88537597656</ele>
        <time>2015-09-26T14:46:21Z</time>
      </trkpt>
      <trkpt lat="45.82755" lon="4.81554">
        <ele>430.32727050781</ele>
        <time>2015-09-26T14:46:35Z</time>
      </trkpt>
      <trkpt lat="45.82768" lon="4.81602">
        <ele>432.25</ele>
        <time>2015-09-26T14:46:48Z</time>
      </trkpt>
      <trkpt lat="45.82777" lon="4.81644">
        <ele>432.25</ele>
        <time>2015-09-26T14:46:54Z</time>
      </trkpt>
      <trkpt lat="45.82787" lon="4.8168">
        <ele>429.36596679688</ele>
        <time>2015-09-26T14:46:58Z</time>
      </trkpt>
      <trkpt lat="45.82804" lon="4.81704">
        <ele>428.40466308594</ele>
        <time>2015-09-26T14:47:02Z</time>
      </trkpt>
      <trkpt lat="45.82834" lon="4.81729">
        <ele>426.00134277344</ele>
        <time>2015-09-26T14:47:07Z</time>
      </trkpt>
      <trkpt lat="45.82878" lon="4.8177">
        <ele>418.31079101562</ele>
        <time>2015-09-26T14:47:14Z</time>
      </trkpt>
      <trkpt lat="45.82904" lon="4.81795">
        <ele>410.1396484375</ele>
        <time>2015-09-26T14:47:22Z</time>
      </trkpt>
      <trkpt lat="45.82928" lon="4.81815">
        <ele>407.25561523438</ele>
        <time>2015-09-26T14:47:31Z</time>
      </trkpt>
      <trkpt lat="45.82931" lon="4.81817">
        <ele>406.77490234375</ele>
        <time>2015-09-26T14:47:32Z</time>
      </trkpt>
      <trkpt lat="45.82937" lon="4.81818">
        <ele>405.3330078125</ele>
        <time>2015-09-26T14:47:35Z</time>
      </trkpt>
      <trkpt lat="45.82942" lon="4.81821">
        <ele>402.44909667969</ele>
        <time>2015-09-26T14:47:38Z</time>
      </trkpt>
      <trkpt lat="45.82942" lon="4.81802">
        <ele>397.16174316406</ele>
        <time>2015-09-26T14:47:46Z</time>
      </trkpt>
      <trkpt lat="45.82941" lon="4.81784">
        <ele>394.27795410156</ele>
        <time>2015-09-26T14:47:50Z</time>
      </trkpt>
      <trkpt lat="45.82931" lon="4.81758">
        <ele>389.95190429688</ele>
        <time>2015-09-26T14:47:59Z</time>
      </trkpt>
      <trkpt lat="45.82932" lon="4.81757">
        <ele>389.95190429688</ele>
        <time>2015-09-26T14:48:13Z</time>
      </trkpt>
      <trkpt lat="45.82932" lon="4.81757">
        <ele>389.95190429688</ele>
        <time>2015-09-26T14:49:30Z</time>
      </trkpt>
      <trkpt lat="45.82932" lon="4.81757">
        <ele>389.95190429688</ele>
        <time>2015-09-26T14:50:19Z</time>
      </trkpt>
      <trkpt lat="45.82952" lon="4.8177">
        <ele>385.14538574219</ele>
        <time>2015-09-26T14:50:28Z</time>
      </trkpt>
      <trkpt lat="45.82968" lon="4.81787">
        <ele>382.74206542969</ele>
        <time>2015-09-26T14:50:33Z</time>
      </trkpt>
      <trkpt lat="45.82989" lon="4.81818">
        <ele>381.30004882812</ele>
        <time>2015-09-26T14:50:38Z</time>
      </trkpt>
      <trkpt lat="45.82997" lon="4.81844">
        <ele>379.85803222656</ele>
        <time>2015-09-26T14:50:41Z</time>
      </trkpt>
      <trkpt lat="45.83004" lon="4.81861">
        <ele>378.89685058594</ele>
        <time>2015-09-26T14:50:43Z</time>
      </trkpt>
      <trkpt lat="45.83011" lon="4.81872">
        <ele>377.45483398438</ele>
        <time>2015-09-26T14:50:45Z</time>
      </trkpt>
      <trkpt lat="45.83018" lon="4.81914">
        <ele>375.05151367188</ele>
        <time>2015-09-26T14:50:53Z</time>
      </trkpt>
      <trkpt lat="45.83018" lon="4.81928">
        <ele>374.09008789062</ele>
        <time>2015-09-26T14:50:57Z</time>
      </trkpt>
      <trkpt lat="45.82998" lon="4.81973">
        <ele>367.84155273438</ele>
        <time>2015-09-26T14:51:05Z</time>
      </trkpt>
      <trkpt lat="45.82986" lon="4.81979">
        <ele>368.322265625</ele>
        <time>2015-09-26T14:51:09Z</time>
      </trkpt>
      <trkpt lat="45.82975" lon="4.81987">
        <ele>368.80297851562</ele>
        <time>2015-09-26T14:51:17Z</time>
      </trkpt>
      <trkpt lat="45.82974" lon="4.81988">
        <ele>368.80297851562</ele>
        <time>2015-09-26T14:51:55Z</time>
      </trkpt>
      <trkpt lat="45.82969" lon="4.81991">
        <ele>369.28369140625</ele>
        <time>2015-09-26T14:52:03Z</time>
      </trkpt>
      <trkpt lat="45.82963" lon="4.81995">
        <ele>371.20629882812</ele>
        <time>2015-09-26T14:52:08Z</time>
      </trkpt>
      <trkpt lat="45.82955" lon="4.81998">
        <ele>373.12890625</ele>
        <time>2015-09-26T14:52:13Z</time>
      </trkpt>
      <trkpt lat="45.82953" lon="4.81997">
        <ele>375.05151367188</ele>
        <time>2015-09-26T14:52:16Z</time>
      </trkpt>
      <trkpt lat="45.82952" lon="4.81991">
        <ele>377.45483398438</ele>
        <time>2015-09-26T14:52:26Z</time>
      </trkpt>
      <trkpt lat="45.82942" lon="4.81994">
        <ele>381.30004882812</ele>
        <time>2015-09-26T14:52:37Z</time>
      </trkpt>
      <trkpt lat="45.82928" lon="4.82003">
        <ele>382.74206542969</ele>
        <time>2015-09-26T14:52:51Z</time>
      </trkpt>
      <trkpt lat="45.82922" lon="4.82006">
        <ele>385.14538574219</ele>
        <time>2015-09-26T14:53:06Z</time>
      </trkpt>
      <trkpt lat="45.82919" lon="4.82005">
        <ele>387.06799316406</ele>
        <time>2015-09-26T14:53:10Z</time>
      </trkpt>
      <trkpt lat="45.82914" lon="4.82004">
        <ele>391.87451171875</ele>
        <time>2015-09-26T14:53:19Z</time>
      </trkpt>
      <trkpt lat="45.82913" lon="4.82004">
        <ele>392.35534667969</ele>
        <time>2015-09-26T14:53:21Z</time>
      </trkpt>
      <trkpt lat="45.82909" lon="4.82005">
        <ele>392.8359375</ele>
        <time>2015-09-26T14:53:24Z</time>
      </trkpt>
      <trkpt lat="45.82899" lon="4.82005">
        <ele>394.75854492188</ele>
        <time>2015-09-26T14:53:33Z</time>
      </trkpt>
      <trkpt lat="45.82887" lon="4.82011">
        <ele>398.60375976562</ele>
        <time>2015-09-26T14:53:47Z</time>
      </trkpt>
      <trkpt lat="45.82887" lon="4.82012">
        <ele>398.12316894531</ele>
        <time>2015-09-26T14:53:51Z</time>
      </trkpt>
      <trkpt lat="45.82878" lon="4.82012">
        <ele>399.56506347656</ele>
        <time>2015-09-26T14:53:58Z</time>
      </trkpt>
      <trkpt lat="45.82863" lon="4.82008">
        <ele>401.00708007812</ele>
        <time>2015-09-26T14:54:12Z</time>
      </trkpt>
      <trkpt lat="45.82851" lon="4.8201">
        <ele>406.77490234375</ele>
        <time>2015-09-26T14:54:23Z</time>
      </trkpt>
      <trkpt lat="45.82833" lon="4.82007">
        <ele>409.65905761719</ele>
        <time>2015-09-26T14:54:40Z</time>
      </trkpt>
      <trkpt lat="45.82832" lon="4.82006">
        <ele>410.62023925781</ele>
        <time>2015-09-26T14:54:45Z</time>
      </trkpt>
      <trkpt lat="45.82829" lon="4.82004">
        <ele>410.62023925781</ele>
        <time>2015-09-26T14:54:48Z</time>
      </trkpt>
      <trkpt lat="45.82821" lon="4.82005">
        <ele>410.62023925781</ele>
        <time>2015-09-26T14:54:56Z</time>
      </trkpt>
      <trkpt lat="45.82813" lon="4.82">
        <ele>413.98486328125</ele>
        <time>2015-09-26T14:55:04Z</time>
      </trkpt>
      <trkpt lat="45.828" lon="4.82001">
        <ele>414.94616699219</ele>
        <time>2015-09-26T14:55:16Z</time>
      </trkpt>
      <trkpt lat="45.82786" lon="4.82003">
        <ele>415.90747070312</ele>
        <time>2015-09-26T14:55:29Z</time>
      </trkpt>
      <trkpt lat="45.82784" lon="4.82003">
        <ele>415.90747070312</ele>
        <time>2015-09-26T14:55:31Z</time>
      </trkpt>
      <trkpt lat="45.82776" lon="4.81995">
        <ele>419.27221679688</ele>
        <time>2015-09-26T14:55:39Z</time>
      </trkpt>
      <trkpt lat="45.82774" lon="4.81993">
        <ele>420.71411132812</ele>
        <time>2015-09-26T14:55:42Z</time>
      </trkpt>
      <trkpt lat="45.82767" lon="4.81992">
        <ele>423.11743164062</ele>
        <time>2015-09-26T14:55:49Z</time>
      </trkpt>
      <trkpt lat="45.8276" lon="4.8199">
        <ele>424.55944824219</ele>
        <time>2015-09-26T14:55:56Z</time>
      </trkpt>
      <trkpt lat="45.82758" lon="4.8199">
        <ele>425.04016113281</ele>
        <time>2015-09-26T14:55:58Z</time>
      </trkpt>
      <trkpt lat="45.8275" lon="4.81995">
        <ele>430.32727050781</ele>
        <time>2015-09-26T14:56:11Z</time>
      </trkpt>
      <trkpt lat="45.82737" lon="4.81995">
        <ele>435.13391113281</ele>
        <time>2015-09-26T14:56:24Z</time>
      </trkpt>
      <trkpt lat="45.82735" lon="4.81996">
        <ele>436.09521484375</ele>
        <time>2015-09-26T14:56:26Z</time>
      </trkpt>
      <trkpt lat="45.82724" lon="4.82">
        <ele>437.05651855469</ele>
        <time>2015-09-26T14:56:39Z</time>
      </trkpt>
      <trkpt lat="45.82722" lon="4.82001">
        <ele>437.537109375</ele>
        <time>2015-09-26T14:56:41Z</time>
      </trkpt>
      <trkpt lat="45.82707" lon="4.82004">
        <ele>438.01782226562</ele>
        <time>2015-09-26T14:56:55Z</time>
      </trkpt>
      <trkpt lat="45.82694" lon="4.82004">
        <ele>440.42126464844</ele>
        <time>2015-09-26T14:57:07Z</time>
      </trkpt>
      <trkpt lat="45.82683" lon="4.8201">
        <ele>440.42126464844</ele>
        <time>2015-09-26T14:57:23Z</time>
      </trkpt>
      <trkpt lat="45.82683" lon="4.82013">
        <ele>441.86315917969</ele>
        <time>2015-09-26T14:58:07Z</time>
      </trkpt>
      <trkpt lat="45.82683" lon="4.82019">
        <ele>440.42126464844</ele>
        <time>2015-09-26T14:58:09Z</time>
      </trkpt>
      <trkpt lat="45.82684" lon="4.82034">
        <ele>436.57592773438</ele>
        <time>2015-09-26T14:58:13Z</time>
      </trkpt>
      <trkpt lat="45.82719" lon="4.82028">
        <ele>427.92395019531</ele>
        <time>2015-09-26T14:58:22Z</time>
      </trkpt>
      <trkpt lat="45.82723" lon="4.82026">
        <ele>426.96276855469</ele>
        <time>2015-09-26T14:58:23Z</time>
      </trkpt>
      <trkpt lat="45.82738" lon="4.82019">
        <ele>423.11743164062</ele>
        <time>2015-09-26T14:58:30Z</time>
      </trkpt>
      <trkpt lat="45.82747" lon="4.82022">
        <ele>422.15600585938</ele>
        <time>2015-09-26T14:58:34Z</time>
      </trkpt>
      <trkpt lat="45.82755" lon="4.82029">
        <ele>425.04016113281</ele>
        <time>2015-09-26T14:58:39Z</time>
      </trkpt>
      <trkpt lat="45.8278" lon="4.82031">
        <ele>422.63671875</ele>
        <time>2015-09-26T14:58:45Z</time>
      </trkpt>
      <trkpt lat="45.82793" lon="4.8203">
        <ele>420.2333984375</ele>
        <time>2015-09-26T14:58:53Z</time>
      </trkpt>
      <trkpt lat="45.82804" lon="4.82028">
        <ele>417.83020019531</ele>
        <time>2015-09-26T14:59:01Z</time>
      </trkpt>
      <trkpt lat="45.82804" lon="4.8203">
        <ele>417.349609375</ele>
        <time>2015-09-26T14:59:06Z</time>
      </trkpt>
      <trkpt lat="45.82823" lon="4.8204">
        <ele>414.46545410156</ele>
        <time>2015-09-26T14:59:15Z</time>
      </trkpt>
      <trkpt lat="45.82823" lon="4.8204">
        <ele>414.94616699219</ele>
        <time>2015-09-26T14:59:19Z</time>
      </trkpt>
      <trkpt lat="45.82839" lon="4.82054">
        <ele>414.46545410156</ele>
        <time>2015-09-26T14:59:28Z</time>
      </trkpt>
      <trkpt lat="45.82846" lon="4.82053">
        <ele>413.98486328125</ele>
        <time>2015-09-26T14:59:32Z</time>
      </trkpt>
      <trkpt lat="45.82861" lon="4.82044">
        <ele>412.06225585938</ele>
        <time>2015-09-26T14:59:37Z</time>
      </trkpt>
      <trkpt lat="45.8288" lon="4.82024">
        <ele>412.54284667969</ele>
        <time>2015-09-26T14:59:46Z</time>
      </trkpt>
      <trkpt lat="45.82881" lon="4.82024">
        <ele>412.54284667969</ele>
        <time>2015-09-26T15:00:23Z</time>
      </trkpt>
      <trkpt lat="45.8289" lon="4.82021">
        <ele>410.1396484375</ele>
        <time>2015-09-26T15:00:30Z</time>
      </trkpt>
      <trkpt lat="45.82893" lon="4.8203">
        <ele>405.3330078125</ele>
        <time>2015-09-26T15:00:36Z</time>
      </trkpt>
      <trkpt lat="45.82898" lon="4.82029">
        <ele>404.85229492188</ele>
        <time>2015-09-26T15:00:37Z</time>
      </trkpt>
      <trkpt lat="45.82928" lon="4.8201">
        <ele>402.9296875</ele>
        <time>2015-09-26T15:00:44Z</time>
      </trkpt>
      <trkpt lat="45.82935" lon="4.82008">
        <ele>401.48779296875</ele>
        <time>2015-09-26T15:00:46Z</time>
      </trkpt>
      <trkpt lat="45.82956" lon="4.82023">
        <ele>396.20056152344</ele>
        <time>2015-09-26T15:00:52Z</time>
      </trkpt>
      <trkpt lat="45.82961" lon="4.82019">
        <ele>394.75854492188</ele>
        <time>2015-09-26T15:01:03Z</time>
      </trkpt>
      <trkpt lat="45.82972" lon="4.82021">
        <ele>390.91320800781</ele>
        <time>2015-09-26T15:01:54Z</time>
      </trkpt>
      <trkpt lat="45.82987" lon="4.82024">
        <ele>389.47119140625</ele>
        <time>2015-09-26T15:02:00Z</time>
      </trkpt>
      <trkpt lat="45.83012" lon="4.82047">
        <ele>385.14538574219</ele>
        <time>2015-09-26T15:02:11Z</time>
      </trkpt>
      <trkpt lat="45.83045" lon="4.82084">
        <ele>380.33874511719</ele>
        <time>2015-09-26T15:02:18Z</time>
      </trkpt>
      <trkpt lat="45.83072" lon="4.82118">
        <ele>376.49353027344</ele>
        <time>2015-09-26T15:02:22Z</time>
      </trkpt>
      <trkpt lat="45.83095" lon="4.82147">
        <ele>373.60949707031</ele>
        <time>2015-09-26T15:02:25Z</time>
      </trkpt>
      <trkpt lat="45.83115" lon="4.82195">
        <ele>369.76428222656</ele>
        <time>2015-09-26T15:02:29Z</time>
      </trkpt>
      <trkpt lat="45.83131" lon="4.82278">
        <ele>363.99633789062</ele>
        <time>2015-09-26T15:02:35Z</time>
      </trkpt>
      <trkpt lat="45.83138" lon="4.82306">
        <ele>362.55432128906</ele>
        <time>2015-09-26T15:02:37Z</time>
      </trkpt>
      <trkpt lat="45.83141" lon="4.82356">
        <ele>360.63171386719</ele>
        <time>2015-09-26T15:02:41Z</time>
      </trkpt>
      <trkpt lat="45.83138" lon="4.82415">
        <ele>357.74780273438</ele>
        <time>2015-09-26T15:02:46Z</time>
      </trkpt>
      <trkpt lat="45.8314" lon="4.82468">
        <ele>350.53784179688</ele>
        <time>2015-09-26T15:02:51Z</time>
      </trkpt>
      <trkpt lat="45.83137" lon="4.82542">
        <ele>343.80859375</ele>
        <time>2015-09-26T15:02:57Z</time>
      </trkpt>
      <trkpt lat="45.83125" lon="4.82577">
        <ele>341.88598632812</ele>
        <time>2015-09-26T15:03:01Z</time>
      </trkpt>
      <trkpt lat="45.83115" lon="4.82601">
        <ele>339.96337890625</ele>
        <time>2015-09-26T15:03:04Z</time>
      </trkpt>
      <trkpt lat="45.83105" lon="4.82622">
        <ele>340.92468261719</ele>
        <time>2015-09-26T15:03:08Z</time>
      </trkpt>
      <trkpt lat="45.83079" lon="4.82654">
        <ele>340.44409179688</ele>
        <time>2015-09-26T15:03:21Z</time>
      </trkpt>
      <trkpt lat="45.8305" lon="4.8269">
        <ele>340.92468261719</ele>
        <time>2015-09-26T15:03:34Z</time>
      </trkpt>
      <trkpt lat="45.83037" lon="4.82722">
        <ele>346.69262695312</ele>
        <time>2015-09-26T15:03:46Z</time>
      </trkpt>
      <trkpt lat="45.83008" lon="4.82764">
        <ele>346.21203613281</ele>
        <time>2015-09-26T15:04:00Z</time>
      </trkpt>
      <trkpt lat="45.82972" lon="4.82818">
        <ele>343.32788085938</ele>
        <time>2015-09-26T15:04:13Z</time>
      </trkpt>
      <trkpt lat="45.82963" lon="4.82829">
        <ele>344.28942871094</ele>
        <time>2015-09-26T15:04:16Z</time>
      </trkpt>
      <trkpt lat="45.82938" lon="4.82851">
        <ele>346.21203613281</ele>
        <time>2015-09-26T15:04:25Z</time>
      </trkpt>
      <trkpt lat="45.82909" lon="4.8287">
        <ele>345.73132324219</ele>
        <time>2015-09-26T15:04:36Z</time>
      </trkpt>
      <trkpt lat="45.82866" lon="4.82883">
        <ele>346.21203613281</ele>
        <time>2015-09-26T15:04:48Z</time>
      </trkpt>
      <trkpt lat="45.82825" lon="4.8289">
        <ele>347.17321777344</ele>
        <time>2015-09-26T15:05:00Z</time>
      </trkpt>
      <trkpt lat="45.82772" lon="4.82892">
        <ele>347.65393066406</ele>
        <time>2015-09-26T15:05:16Z</time>
      </trkpt>
      <trkpt lat="45.82714" lon="4.82875">
        <ele>350.05725097656</ele>
        <time>2015-09-26T15:05:33Z</time>
      </trkpt>
      <trkpt lat="45.82682" lon="4.82825">
        <ele>349.09582519531</ele>
        <time>2015-09-26T15:05:46Z</time>
      </trkpt>
      <trkpt lat="45.82675" lon="4.8281">
        <ele>349.09582519531</ele>
        <time>2015-09-26T15:05:49Z</time>
      </trkpt>
      <trkpt lat="45.82669" lon="4.82795">
        <ele>348.615234375</ele>
        <time>2015-09-26T15:05:52Z</time>
      </trkpt>
      <trkpt lat="45.82639" lon="4.82752">
        <ele>346.21203613281</ele>
        <time>2015-09-26T15:06:01Z</time>
      </trkpt>
      <trkpt lat="45.82575" lon="4.82722">
        <ele>343.32788085938</ele>
        <time>2015-09-26T15:06:12Z</time>
      </trkpt>
      <trkpt lat="45.82542" lon="4.8271">
        <ele>341.88598632812</ele>
        <time>2015-09-26T15:06:17Z</time>
      </trkpt>
      <trkpt lat="45.82521" lon="4.82718">
        <ele>340.44409179688</ele>
        <time>2015-09-26T15:06:21Z</time>
      </trkpt>
      <trkpt lat="45.82496" lon="4.82719">
        <ele>341.88598632812</ele>
        <time>2015-09-26T15:06:25Z</time>
      </trkpt>
      <trkpt lat="45.82456" lon="4.8271">
        <ele>342.36669921875</ele>
        <time>2015-09-26T15:06:35Z</time>
      </trkpt>
      <trkpt lat="45.8243" lon="4.82708">
        <ele>342.36669921875</ele>
        <time>2015-09-26T15:06:41Z</time>
      </trkpt>
      <trkpt lat="45.82418" lon="4.82704">
        <ele>341.88598632812</ele>
        <time>2015-09-26T15:06:44Z</time>
      </trkpt>
      <trkpt lat="45.82381" lon="4.82701">
        <ele>341.4052734375</ele>
        <time>2015-09-26T15:06:52Z</time>
      </trkpt>
      <trkpt lat="45.82339" lon="4.82703">
        <ele>340.92468261719</ele>
        <time>2015-09-26T15:07:00Z</time>
      </trkpt>
      <trkpt lat="45.82314" lon="4.82709">
        <ele>339.00207519531</ele>
        <time>2015-09-26T15:07:08Z</time>
      </trkpt>
      <trkpt lat="45.82303" lon="4.82734">
        <ele>335.63732910156</ele>
        <time>2015-09-26T15:07:14Z</time>
      </trkpt>
      <trkpt lat="45.82299" lon="4.8275">
        <ele>334.19543457031</ele>
        <time>2015-09-26T15:07:16Z</time>
      </trkpt>
      <trkpt lat="45.82263" lon="4.82766">
        <ele>327.94677734375</ele>
        <time>2015-09-26T15:07:23Z</time>
      </trkpt>
      <trkpt lat="45.8224" lon="4.82774">
        <ele>326.5048828125</ele>
        <time>2015-09-26T15:07:26Z</time>
      </trkpt>
      <trkpt lat="45.82219" lon="4.82794">
        <ele>324.58227539062</ele>
        <time>2015-09-26T15:07:32Z</time>
      </trkpt>
      <trkpt lat="45.82207" lon="4.82791">
        <ele>326.98559570312</ele>
        <time>2015-09-26T15:07:41Z</time>
      </trkpt>
      <trkpt lat="45.82196" lon="4.82779">
        <ele>327.94677734375</ele>
        <time>2015-09-26T15:07:52Z</time>
      </trkpt>
      <trkpt lat="45.8218" lon="4.82756">
        <ele>329.86950683594</ele>
        <time>2015-09-26T15:08:05Z</time>
      </trkpt>
      <trkpt lat="45.82155" lon="4.82739">
        <ele>331.3115234375</ele>
        <time>2015-09-26T15:08:19Z</time>
      </trkpt>
      <trkpt lat="45.82123" lon="4.82717">
        <ele>333.71472167969</ele>
        <time>2015-09-26T15:08:34Z</time>
      </trkpt>
      <trkpt lat="45.82077" lon="4.8269">
        <ele>333.71472167969</ele>
        <time>2015-09-26T15:08:51Z</time>
      </trkpt>
      <trkpt lat="45.82021" lon="4.82644">
        <ele>337.56005859375</ele>
        <time>2015-09-26T15:09:08Z</time>
      </trkpt>
      <trkpt lat="45.82007" lon="4.82624">
        <ele>340.92468261719</ele>
        <time>2015-09-26T15:09:20Z</time>
      </trkpt>
      <trkpt lat="45.82008" lon="4.82623">
        <ele>341.88598632812</ele>
        <time>2015-09-26T15:09:25Z</time>
      </trkpt>
      <trkpt lat="45.82003" lon="4.82622">
        <ele>342.36669921875</ele>
        <time>2015-09-26T15:09:30Z</time>
      </trkpt>
      <trkpt lat="45.81986" lon="4.82607">
        <ele>346.21203613281</ele>
        <time>2015-09-26T15:09:43Z</time>
      </trkpt>
      <trkpt lat="45.81938" lon="4.82568">
        <ele>343.80859375</ele>
        <time>2015-09-26T15:09:55Z</time>
      </trkpt>
      <trkpt lat="45.81913" lon="4.82537">
        <ele>343.80859375</ele>
        <time>2015-09-26T15:10:03Z</time>
      </trkpt>
      <trkpt lat="45.81873" lon="4.82477">
        <ele>341.4052734375</ele>
        <time>2015-09-26T15:10:16Z</time>
      </trkpt>
      <trkpt lat="45.81819" lon="4.82356">
        <ele>340.44409179688</ele>
        <time>2015-09-26T15:10:34Z</time>
      </trkpt>
      <trkpt lat="45.81805" lon="4.82327">
        <ele>339.96337890625</ele>
        <time>2015-09-26T15:10:38Z</time>
      </trkpt>
      <trkpt lat="45.81795" lon="4.82301">
        <ele>338.521484375</ele>
        <time>2015-09-26T15:10:41Z</time>
      </trkpt>
      <trkpt lat="45.81765" lon="4.82275">
        <ele>334.67614746094</ele>
        <time>2015-09-26T15:10:46Z</time>
      </trkpt>
      <trkpt lat="45.81747" lon="4.82276">
        <ele>332.27282714844</ele>
        <time>2015-09-26T15:10:48Z</time>
      </trkpt>
      <trkpt lat="45.817" lon="4.82269">
        <ele>328.90832519531</ele>
        <time>2015-09-26T15:10:53Z</time>
      </trkpt>
      <trkpt lat="45.81653" lon="4.82222">
        <ele>328.90832519531</ele>
        <time>2015-09-26T15:11:00Z</time>
      </trkpt>
      <trkpt lat="45.81649" lon="4.82187">
        <ele>328.42761230469</ele>
        <time>2015-09-26T15:11:04Z</time>
      </trkpt>
      <trkpt lat="45.81652" lon="4.82095">
        <ele>325.06298828125</ele>
        <time>2015-09-26T15:11:15Z</time>
      </trkpt>
      <trkpt lat="45.81652" lon="4.82072">
        <ele>325.06298828125</ele>
        <time>2015-09-26T15:11:18Z</time>
      </trkpt>
      <trkpt lat="45.81609" lon="4.82048">
        <ele>322.17895507812</ele>
        <time>2015-09-26T15:11:26Z</time>
      </trkpt>
      <trkpt lat="45.81545" lon="4.82017">
        <ele>319.77563476562</ele>
        <time>2015-09-26T15:11:35Z</time>
      </trkpt>
      <trkpt lat="45.81505" lon="4.82012">
        <ele>318.81433105469</ele>
        <time>2015-09-26T15:11:41Z</time>
      </trkpt>
      <trkpt lat="45.81479" lon="4.81997">
        <ele>317.37243652344</ele>
        <time>2015-09-26T15:11:45Z</time>
      </trkpt>
      <trkpt lat="45.81462" lon="4.81967">
        <ele>315.44982910156</ele>
        <time>2015-09-26T15:11:50Z</time>
      </trkpt>
      <trkpt lat="45.81461" lon="4.8192">
        <ele>312.08520507812</ele>
        <time>2015-09-26T15:11:57Z</time>
      </trkpt>
      <trkpt lat="45.81456" lon="4.81879">
        <ele>311.12377929688</ele>
        <time>2015-09-26T15:12:03Z</time>
      </trkpt>
      <trkpt lat="45.81437" lon="4.81868">
        <ele>310.64306640625</ele>
        <time>2015-09-26T15:12:07Z</time>
      </trkpt>
      <trkpt lat="45.81404" lon="4.81845">
        <ele>310.64306640625</ele>
        <time>2015-09-26T15:12:14Z</time>
      </trkpt>
      <trkpt lat="45.81395" lon="4.81822">
        <ele>311.6044921875</ele>
        <time>2015-09-26T15:12:18Z</time>
      </trkpt>
      <trkpt lat="45.81418" lon="4.81748">
        <ele>314.48840332031</ele>
        <time>2015-09-26T15:12:33Z</time>
      </trkpt>
      <trkpt lat="45.81426" lon="4.81737">
        <ele>314.48840332031</ele>
        <time>2015-09-26T15:12:36Z</time>
      </trkpt>
      <trkpt lat="45.81426" lon="4.81673">
        <ele>313.04650878906</ele>
        <time>2015-09-26T15:12:48Z</time>
      </trkpt>
      <trkpt lat="45.81423" lon="4.81658">
        <ele>313.52722167969</ele>
        <time>2015-09-26T15:12:51Z</time>
      </trkpt>
      <trkpt lat="45.81387" lon="4.81618">
        <ele>315.44982910156</ele>
        <time>2015-09-26T15:13:02Z</time>
      </trkpt>
      <trkpt lat="45.81389" lon="4.81622">
        <ele>315.44982910156</ele>
        <time>2015-09-26T15:13:07Z</time>
      </trkpt>
      <trkpt lat="45.81416" lon="4.8165">
        <ele>314.0078125</ele>
        <time>2015-09-26T15:13:20Z</time>
      </trkpt>
      <trkpt lat="45.81425" lon="4.81665">
        <ele>313.52722167969</ele>
        <time>2015-09-26T15:13:24Z</time>
      </trkpt>
      <trkpt lat="45.81431" lon="4.81661">
        <ele>314.48840332031</ele>
        <time>2015-09-26T15:13:28Z</time>
      </trkpt>
      <trkpt lat="45.81433" lon="4.81614">
        <ele>319.29504394531</ele>
        <time>2015-09-26T15:13:44Z</time>
      </trkpt>
      <trkpt lat="45.81436" lon="4.81557">
        <ele>320.73706054688</ele>
        <time>2015-09-26T15:13:59Z</time>
      </trkpt>
      <trkpt lat="45.81442" lon="4.81497">
        <ele>324.58227539062</ele>
        <time>2015-09-26T15:14:15Z</time>
      </trkpt>
      <trkpt lat="45.81455" lon="4.81433">
        <ele>330.83093261719</ele>
        <time>2015-09-26T15:14:34Z</time>
      </trkpt>
      <trkpt lat="45.81469" lon="4.81363">
        <ele>332.27282714844</ele>
        <time>2015-09-26T15:14:51Z</time>
      </trkpt>
      <trkpt lat="45.81475" lon="4.81322">
        <ele>329.86950683594</ele>
        <time>2015-09-26T15:14:58Z</time>
      </trkpt>
      <trkpt lat="45.81477" lon="4.81295">
        <ele>327.94677734375</ele>
        <time>2015-09-26T15:15:01Z</time>
      </trkpt>
      <trkpt lat="45.81495" lon="4.81274">
        <ele>325.06298828125</ele>
        <time>2015-09-26T15:15:05Z</time>
      </trkpt>
      <trkpt lat="45.81509" lon="4.81267">
        <ele>323.62097167969</ele>
        <time>2015-09-26T15:15:07Z</time>
      </trkpt>
      <trkpt lat="45.81559" lon="4.81223">
        <ele>314.96911621094</ele>
        <time>2015-09-26T15:15:14Z</time>
      </trkpt>
      <trkpt lat="45.81642" lon="4.81155">
        <ele>296.22351074219</ele>
        <time>2015-09-26T15:15:23Z</time>
      </trkpt>
      <trkpt lat="45.81652" lon="4.81147">
        <ele>295.26196289062</ele>
        <time>2015-09-26T15:15:24Z</time>
      </trkpt>
      <trkpt lat="45.8167" lon="4.811">
        <ele>293.33935546875</ele>
        <time>2015-09-26T15:15:30Z</time>
      </trkpt>
      <trkpt lat="45.81655" lon="4.81054">
        <ele>296.7041015625</ele>
        <time>2015-09-26T15:15:41Z</time>
      </trkpt>
      <trkpt lat="45.81632" lon="4.81026">
        <ele>299.58801269531</ele>
        <time>2015-09-26T15:15:53Z</time>
      </trkpt>
      <trkpt lat="45.81591" lon="4.81007">
        <ele>303.43322753906</ele>
        <time>2015-09-26T15:16:08Z</time>
      </trkpt>
      <trkpt lat="45.81564" lon="4.80978">
        <ele>309.68188476562</ele>
        <time>2015-09-26T15:16:23Z</time>
      </trkpt>
      <trkpt lat="45.81555" lon="4.80965">
        <ele>313.04650878906</ele>
        <time>2015-09-26T15:16:28Z</time>
      </trkpt>
      <trkpt lat="45.81546" lon="4.80954">
        <ele>316.89172363281</ele>
        <time>2015-09-26T15:16:33Z</time>
      </trkpt>
      <trkpt lat="45.81522" lon="4.8092">
        <ele>324.58227539062</ele>
        <time>2015-09-26T15:16:46Z</time>
      </trkpt>
      <trkpt lat="45.81514" lon="4.80886">
        <ele>327.46618652344</ele>
        <time>2015-09-26T15:16:58Z</time>
      </trkpt>
      <trkpt lat="45.81511" lon="4.80862">
        <ele>329.86950683594</ele>
        <time>2015-09-26T15:17:09Z</time>
      </trkpt>
      <trkpt lat="45.8151" lon="4.80844">
        <ele>331.3115234375</ele>
        <time>2015-09-26T15:17:20Z</time>
      </trkpt>
      <trkpt lat="45.81508" lon="4.80818">
        <ele>331.79211425781</ele>
        <time>2015-09-26T15:17:33Z</time>
      </trkpt>
      <trkpt lat="45.81505" lon="4.80805">
        <ele>332.27282714844</ele>
        <time>2015-09-26T15:17:39Z</time>
      </trkpt>
      <trkpt lat="45.81501" lon="4.80767">
        <ele>336.1181640625</ele>
        <time>2015-09-26T15:18:00Z</time>
      </trkpt>
      <trkpt lat="45.81497" lon="4.80747">
        <ele>338.04077148438</ele>
        <time>2015-09-26T15:18:12Z</time>
      </trkpt>
      <trkpt lat="45.81499" lon="4.80712">
        <ele>342.84729003906</ele>
        <time>2015-09-26T15:18:31Z</time>
      </trkpt>
      <trkpt lat="45.81505" lon="4.80682">
        <ele>346.21203613281</ele>
        <time>2015-09-26T15:18:46Z</time>
      </trkpt>
      <trkpt lat="45.81518" lon="4.80648">
        <ele>347.65393066406</ele>
        <time>2015-09-26T15:19:01Z</time>
      </trkpt>
      <trkpt lat="45.81522" lon="4.80628">
        <ele>348.13464355469</ele>
        <time>2015-09-26T15:19:08Z</time>
      </trkpt>
      <trkpt lat="45.81518" lon="4.80621">
        <ele>348.13464355469</ele>
        <time>2015-09-26T15:19:12Z</time>
      </trkpt>
      <trkpt lat="45.81488" lon="4.80599">
        <ele>347.17321777344</ele>
        <time>2015-09-26T15:19:23Z</time>
      </trkpt>
      <trkpt lat="45.8148" lon="4.80579">
        <ele>346.69262695312</ele>
        <time>2015-09-26T15:19:27Z</time>
      </trkpt>
      <trkpt lat="45.8148" lon="4.80565">
        <ele>345.25061035156</ele>
        <time>2015-09-26T15:19:29Z</time>
      </trkpt>
      <trkpt lat="45.8149" lon="4.80533">
        <ele>339.96337890625</ele>
        <time>2015-09-26T15:19:34Z</time>
      </trkpt>
      <trkpt lat="45.81493" lon="4.80527">
        <ele>339.48266601562</ele>
        <time>2015-09-26T15:19:39Z</time>
      </trkpt>
      <trkpt lat="45.81494" lon="4.80519">
        <ele>339.00207519531</ele>
        <time>2015-09-26T15:19:44Z</time>
      </trkpt>
      <trkpt lat="45.81499" lon="4.8051">
        <ele>337.56005859375</ele>
        <time>2015-09-26T15:19:46Z</time>
      </trkpt>
      <trkpt lat="45.81512" lon="4.80468">
        <ele>333.23413085938</ele>
        <time>2015-09-26T15:19:51Z</time>
      </trkpt>
      <trkpt lat="45.81519" lon="4.80434">
        <ele>329.86950683594</ele>
        <time>2015-09-26T15:19:56Z</time>
      </trkpt>
      <trkpt lat="45.81523" lon="4.80393">
        <ele>324.1015625</ele>
        <time>2015-09-26T15:20:01Z</time>
      </trkpt>
      <trkpt lat="45.81516" lon="4.80359">
        <ele>322.17895507812</ele>
        <time>2015-09-26T15:20:05Z</time>
      </trkpt>
      <trkpt lat="45.81504" lon="4.80303">
        <ele>318.81433105469</ele>
        <time>2015-09-26T15:20:12Z</time>
      </trkpt>
      <trkpt lat="45.81493" lon="4.80294">
        <ele>314.48840332031</ele>
        <time>2015-09-26T15:20:16Z</time>
      </trkpt>
      <trkpt lat="45.8147" lon="4.80308">
        <ele>310.16247558594</ele>
        <time>2015-09-26T15:20:22Z</time>
      </trkpt>
      <trkpt lat="45.81466" lon="4.80316">
        <ele>309.201171875</ele>
        <time>2015-09-26T15:20:24Z</time>
      </trkpt>
      <trkpt lat="45.81459" lon="4.80323">
        <ele>309.68188476562</ele>
        <time>2015-09-26T15:20:33Z</time>
      </trkpt>
      <trkpt lat="45.81458" lon="4.80323">
        <ele>309.68188476562</ele>
        <time>2015-09-26T15:20:39Z</time>
      </trkpt>
      <trkpt lat="45.81461" lon="4.80312">
        <ele>307.75927734375</ele>
        <time>2015-09-26T15:20:43Z</time>
      </trkpt>
      <trkpt lat="45.81472" lon="4.80287">
        <ele>303.43322753906</ele>
        <time>2015-09-26T15:20:46Z</time>
      </trkpt>
      <trkpt lat="45.81497" lon="4.80248">
        <ele>297.66540527344</ele>
        <time>2015-09-26T15:20:52Z</time>
      </trkpt>
      <trkpt lat="45.81504" lon="4.80244">
        <ele>298.14611816406</ele>
        <time>2015-09-26T15:20:56Z</time>
      </trkpt>
      <trkpt lat="45.81539" lon="4.80239">
        <ele>300.54931640625</ele>
        <time>2015-09-26T15:21:12Z</time>
      </trkpt>
      <trkpt lat="45.8159" lon="4.80231">
        <ele>302.95251464844</ele>
        <time>2015-09-26T15:21:32Z</time>
      </trkpt>
      <trkpt lat="45.81598" lon="4.80216">
        <ele>303.91394042969</ele>
        <time>2015-09-26T15:21:42Z</time>
      </trkpt>
      <trkpt lat="45.81595" lon="4.80199">
        <ele>306.7978515625</ele>
        <time>2015-09-26T15:21:49Z</time>
      </trkpt>
      <trkpt lat="45.81594" lon="4.80191">
        <ele>307.75927734375</ele>
        <time>2015-09-26T15:21:53Z</time>
      </trkpt>
      <trkpt lat="45.81589" lon="4.80152">
        <ele>312.56579589844</ele>
        <time>2015-09-26T15:22:13Z</time>
      </trkpt>
      <trkpt lat="45.81592" lon="4.80116">
        <ele>316.41101074219</ele>
        <time>2015-09-26T15:22:31Z</time>
      </trkpt>
      <trkpt lat="45.81608" lon="4.80082">
        <ele>320.73706054688</ele>
        <time>2015-09-26T15:22:51Z</time>
      </trkpt>
      <trkpt lat="45.81617" lon="4.80068">
        <ele>320.73706054688</ele>
        <time>2015-09-26T15:23:53Z</time>
      </trkpt>
      <trkpt lat="45.81627" lon="4.80045">
        <ele>322.65966796875</ele>
        <time>2015-09-26T15:24:12Z</time>
      </trkpt>
      <trkpt lat="45.81637" lon="4.80025">
        <ele>326.98559570312</ele>
        <time>2015-09-26T15:24:32Z</time>
      </trkpt>
      <trkpt lat="45.81643" lon="4.80007">
        <ele>330.83093261719</ele>
        <time>2015-09-26T15:24:49Z</time>
      </trkpt>
      <trkpt lat="45.81645" lon="4.79995">
        <ele>335.63732910156</ele>
        <time>2015-09-26T15:25:03Z</time>
      </trkpt>
      <trkpt lat="45.81642" lon="4.79976">
        <ele>336.59887695312</ele>
        <time>2015-09-26T15:25:21Z</time>
      </trkpt>
      <trkpt lat="45.81645" lon="4.79978">
        <ele>335.63732910156</ele>
        <time>2015-09-26T15:25:39Z</time>
      </trkpt>
      <trkpt lat="45.81647" lon="4.7998">
        <ele>336.1181640625</ele>
        <time>2015-09-26T15:25:42Z</time>
      </trkpt>
      <trkpt lat="45.81654" lon="4.79982">
        <ele>336.1181640625</ele>
        <time>2015-09-26T15:25:46Z</time>
      </trkpt>
      <trkpt lat="45.81669" lon="4.79984">
        <ele>337.07946777344</ele>
        <time>2015-09-26T15:26:01Z</time>
      </trkpt>
      <trkpt lat="45.81661" lon="4.79981">
        <ele>336.1181640625</ele>
        <time>2015-09-26T15:26:06Z</time>
      </trkpt>
      <trkpt lat="45.81648" lon="4.79983">
        <ele>335.63732910156</ele>
        <time>2015-09-26T15:26:10Z</time>
      </trkpt>
      <trkpt lat="45.8164" lon="4.79974">
        <ele>335.15673828125</ele>
        <time>2015-09-26T15:26:15Z</time>
      </trkpt>
      <trkpt lat="45.81641" lon="4.7997">
        <ele>335.63732910156</ele>
        <time>2015-09-26T15:26:18Z</time>
      </trkpt>
      <trkpt lat="45.81651" lon="4.79946">
        <ele>336.59887695312</ele>
        <time>2015-09-26T15:26:31Z</time>
      </trkpt>
      <trkpt lat="45.8166" lon="4.79921">
        <ele>339.48266601562</ele>
        <time>2015-09-26T15:26:44Z</time>
      </trkpt>
      <trkpt lat="45.81663" lon="4.79915">
        <ele>339.00207519531</ele>
        <time>2015-09-26T15:26:56Z</time>
      </trkpt>
      <trkpt lat="45.81671" lon="4.79893">
        <ele>342.84729003906</ele>
        <time>2015-09-26T15:27:07Z</time>
      </trkpt>
      <trkpt lat="45.81682" lon="4.79866">
        <ele>346.69262695312</ele>
        <time>2015-09-26T15:27:22Z</time>
      </trkpt>
      <trkpt lat="45.81696" lon="4.79841">
        <ele>349.57653808594</ele>
        <time>2015-09-26T15:27:38Z</time>
      </trkpt>
      <trkpt lat="45.81708" lon="4.79831">
        <ele>352.46057128906</ele>
        <time>2015-09-26T15:27:48Z</time>
      </trkpt>
      <trkpt lat="45.81721" lon="4.79821">
        <ele>356.30578613281</ele>
        <time>2015-09-26T15:27:59Z</time>
      </trkpt>
      <trkpt lat="45.81722" lon="4.79819">
        <ele>356.30578613281</ele>
        <time>2015-09-26T15:28:01Z</time>
      </trkpt>
      <trkpt lat="45.81724" lon="4.79815">
        <ele>356.78637695312</ele>
        <time>2015-09-26T15:28:17Z</time>
      </trkpt>
      <trkpt lat="45.81724" lon="4.79815">
        <ele>356.78637695312</ele>
        <time>2015-09-26T15:28:19Z</time>
      </trkpt>
      <trkpt lat="45.81741" lon="4.79785">
        <ele>359.18969726562</ele>
        <time>2015-09-26T15:28:37Z</time>
      </trkpt>
      <trkpt lat="45.81749" lon="4.79771">
        <ele>360.63171386719</ele>
        <time>2015-09-26T15:28:45Z</time>
      </trkpt>
      <trkpt lat="45.81759" lon="4.79752">
        <ele>361.59313964844</ele>
        <time>2015-09-26T15:28:55Z</time>
      </trkpt>
      <trkpt lat="45.81754" lon="4.79732">
        <ele>360.15112304688</ele>
        <time>2015-09-26T15:29:04Z</time>
      </trkpt>
      <trkpt lat="45.81749" lon="4.79722">
        <ele>360.63171386719</ele>
        <time>2015-09-26T15:29:07Z</time>
      </trkpt>
      <trkpt lat="45.81748" lon="4.79718">
        <ele>360.63171386719</ele>
        <time>2015-09-26T15:29:09Z</time>
      </trkpt>
      <trkpt lat="45.81747" lon="4.79722">
        <ele>360.15112304688</ele>
        <time>2015-09-26T15:29:12Z</time>
      </trkpt>
      <trkpt lat="45.81764" lon="4.79748">
        <ele>360.15112304688</ele>
        <time>2015-09-26T15:29:24Z</time>
      </trkpt>
      <trkpt lat="45.81767" lon="4.79743">
        <ele>361.11242675781</ele>
        <time>2015-09-26T15:29:28Z</time>
      </trkpt>
      <trkpt lat="45.81771" lon="4.79741">
        <ele>361.59313964844</ele>
        <time>2015-09-26T15:29:31Z</time>
      </trkpt>
      <trkpt lat="45.81781" lon="4.79708">
        <ele>362.07373046875</ele>
        <time>2015-09-26T15:29:44Z</time>
      </trkpt>
      <trkpt lat="45.81768" lon="4.79664">
        <ele>364.47692871094</ele>
        <time>2015-09-26T15:30:01Z</time>
      </trkpt>
      <trkpt lat="45.81764" lon="4.79655">
        <ele>365.9189453125</ele>
        <time>2015-09-26T15:30:05Z</time>
      </trkpt>
      <trkpt lat="45.81752" lon="4.7961">
        <ele>368.80297851562</ele>
        <time>2015-09-26T15:30:21Z</time>
      </trkpt>
      <trkpt lat="45.81739" lon="4.7956">
        <ele>373.12890625</ele>
        <time>2015-09-26T15:30:39Z</time>
      </trkpt>
      <trkpt lat="45.81736" lon="4.79556">
        <ele>373.12890625</ele>
        <time>2015-09-26T15:30:41Z</time>
      </trkpt>
      <trkpt lat="45.81724" lon="4.79554">
        <ele>372.64819335938</ele>
        <time>2015-09-26T15:30:48Z</time>
      </trkpt>
      <trkpt lat="45.81718" lon="4.7956">
        <ele>372.16748046875</ele>
        <time>2015-09-26T15:30:50Z</time>
      </trkpt>
      <trkpt lat="45.81641" lon="4.79616">
        <ele>368.80297851562</ele>
        <time>2015-09-26T15:31:06Z</time>
      </trkpt>
      <trkpt lat="45.81558" lon="4.79675">
        <ele>363.51574707031</ele>
        <time>2015-09-26T15:31:18Z</time>
      </trkpt>
      <trkpt lat="45.81455" lon="4.79723">
        <ele>362.55432128906</ele>
        <time>2015-09-26T15:31:32Z</time>
      </trkpt>
      <trkpt lat="45.8142" lon="4.79741">
        <ele>361.59313964844</ele>
        <time>2015-09-26T15:31:37Z</time>
      </trkpt>
      <trkpt lat="45.81295" lon="4.79764">
        <ele>355.34448242188</ele>
        <time>2015-09-26T15:31:53Z</time>
      </trkpt>
      <trkpt lat="45.81185" lon="4.79821">
        <ele>347.65393066406</ele>
        <time>2015-09-26T15:32:05Z</time>
      </trkpt>
      <trkpt lat="45.81079" lon="4.79832">
        <ele>339.48266601562</ele>
        <time>2015-09-26T15:32:15Z</time>
      </trkpt>
      <trkpt lat="45.81025" lon="4.7984">
        <ele>336.1181640625</ele>
        <time>2015-09-26T15:32:20Z</time>
      </trkpt>
      <trkpt lat="45.81005" lon="4.79832">
        <ele>334.67614746094</ele>
        <time>2015-09-26T15:32:23Z</time>
      </trkpt>
      <trkpt lat="45.80979" lon="4.79833">
        <ele>332.75354003906</ele>
        <time>2015-09-26T15:32:27Z</time>
      </trkpt>
      <trkpt lat="45.80886" lon="4.79862">
        <ele>327.46618652344</ele>
        <time>2015-09-26T15:32:39Z</time>
      </trkpt>
      <trkpt lat="45.80795" lon="4.79806">
        <ele>316.89172363281</ele>
        <time>2015-09-26T15:32:49Z</time>
      </trkpt>
      <trkpt lat="45.80731" lon="4.79767">
        <ele>311.12377929688</ele>
        <time>2015-09-26T15:32:57Z</time>
      </trkpt>
      <trkpt lat="45.80695" lon="4.79746">
        <ele>307.27856445312</ele>
        <time>2015-09-26T15:33:01Z</time>
      </trkpt>
      <trkpt lat="45.80657" lon="4.79734">
        <ele>303.43322753906</ele>
        <time>2015-09-26T15:33:05Z</time>
      </trkpt>
      <trkpt lat="45.80629" lon="4.79731">
        <ele>301.02990722656</ele>
        <time>2015-09-26T15:33:10Z</time>
      </trkpt>
      <trkpt lat="45.80631" lon="4.79731">
        <ele>301.99133300781</ele>
        <time>2015-09-26T15:33:14Z</time>
      </trkpt>
      <trkpt lat="45.80633" lon="4.79688">
        <ele>294.78137207031</ele>
        <time>2015-09-26T15:33:22Z</time>
      </trkpt>
      <trkpt lat="45.80632" lon="4.79638">
        <ele>285.64880371094</ele>
        <time>2015-09-26T15:33:29Z</time>
      </trkpt>
      <trkpt lat="45.80624" lon="4.79619">
        <ele>281.80358886719</ele>
        <time>2015-09-26T15:33:32Z</time>
      </trkpt>
      <trkpt lat="45.80604" lon="4.79594">
        <ele>277.95825195312</ele>
        <time>2015-09-26T15:33:36Z</time>
      </trkpt>
      <trkpt lat="45.8056" lon="4.79554">
        <ele>272.67114257812</ele>
        <time>2015-09-26T15:33:42Z</time>
      </trkpt>
      <trkpt lat="45.80473" lon="4.79536">
        <ele>267.86450195312</ele>
        <time>2015-09-26T15:33:53Z</time>
      </trkpt>
      <trkpt lat="45.80448" lon="4.79493">
        <ele>264.01928710938</ele>
        <time>2015-09-26T15:33:58Z</time>
      </trkpt>
      <trkpt lat="45.8044" lon="4.79473">
        <ele>265.46130371094</ele>
        <time>2015-09-26T15:34:00Z</time>
      </trkpt>
      <trkpt lat="45.80425" lon="4.7946">
        <ele>266.42248535156</ele>
        <time>2015-09-26T15:34:05Z</time>
      </trkpt>
      <trkpt lat="45.80375" lon="4.79457">
        <ele>264.98059082031</ele>
        <time>2015-09-26T15:34:22Z</time>
      </trkpt>
      <trkpt lat="45.80339" lon="4.79455">
        <ele>266.90319824219</ele>
        <time>2015-09-26T15:34:30Z</time>
      </trkpt>
      <trkpt lat="45.80296" lon="4.79452">
        <ele>272.67114257812</ele>
        <time>2015-09-26T15:34:38Z</time>
      </trkpt>
      <trkpt lat="45.80279" lon="4.7945">
        <ele>273.15185546875</ele>
        <time>2015-09-26T15:34:41Z</time>
      </trkpt>
      <trkpt lat="45.80267" lon="4.79422">
        <ele>270.74841308594</ele>
        <time>2015-09-26T15:34:45Z</time>
      </trkpt>
      <trkpt lat="45.80267" lon="4.79388">
        <ele>267.38391113281</ele>
        <time>2015-09-26T15:34:48Z</time>
      </trkpt>
      <trkpt lat="45.80276" lon="4.79336">
        <ele>260.17395019531</ele>
        <time>2015-09-26T15:34:52Z</time>
      </trkpt>
      <trkpt lat="45.80277" lon="4.7927">
        <ele>248.63818359375</ele>
        <time>2015-09-26T15:34:59Z</time>
      </trkpt>
      <trkpt lat="45.80262" lon="4.79265">
        <ele>248.15759277344</ele>
        <time>2015-09-26T15:35:05Z</time>
      </trkpt>
      <trkpt lat="45.8024" lon="4.79277">
        <ele>248.15759277344</ele>
        <time>2015-09-26T15:35:10Z</time>
      </trkpt>
      <trkpt lat="45.80227" lon="4.79288">
        <ele>247.6767578125</ele>
        <time>2015-09-26T15:35:13Z</time>
      </trkpt>
      <trkpt lat="45.80212" lon="4.79312">
        <ele>247.19604492188</ele>
        <time>2015-09-26T15:35:18Z</time>
      </trkpt>
      <trkpt lat="45.80197" lon="4.79351">
        <ele>245.75415039062</ele>
        <time>2015-09-26T15:35:24Z</time>
      </trkpt>
      <trkpt lat="45.80176" lon="4.79412">
        <ele>240.94763183594</ele>
        <time>2015-09-26T15:35:32Z</time>
      </trkpt>
      <trkpt lat="45.80169" lon="4.79437">
        <ele>239.98620605469</ele>
        <time>2015-09-26T15:35:35Z</time>
      </trkpt>
      <trkpt lat="45.80156" lon="4.79581">
        <ele>240.46704101562</ele>
        <time>2015-09-26T15:35:51Z</time>
      </trkpt>
      <trkpt lat="45.80144" lon="4.79702">
        <ele>247.19604492188</ele>
        <time>2015-09-26T15:36:08Z</time>
      </trkpt>
      <trkpt lat="45.8014" lon="4.7972">
        <ele>245.75415039062</ele>
        <time>2015-09-26T15:36:11Z</time>
      </trkpt>
      <trkpt lat="45.8012" lon="4.79769">
        <ele>243.35083007812</ele>
        <time>2015-09-26T15:36:18Z</time>
      </trkpt>
      <trkpt lat="45.80087" lon="4.79798">
        <ele>240.46704101562</ele>
        <time>2015-09-26T15:36:24Z</time>
      </trkpt>
      <trkpt lat="45.80052" lon="4.79799">
        <ele>237.10229492188</ele>
        <time>2015-09-26T15:36:29Z</time>
      </trkpt>
      <trkpt lat="45.79957" lon="4.798">
        <ele>229.41174316406</ele>
        <time>2015-09-26T15:36:39Z</time>
      </trkpt>
      <trkpt lat="45.79907" lon="4.79832">
        <ele>227.9697265625</ele>
        <time>2015-09-26T15:36:45Z</time>
      </trkpt>
      <trkpt lat="45.79863" lon="4.79852">
        <ele>228.45043945312</ele>
        <time>2015-09-26T15:36:51Z</time>
      </trkpt>
      <trkpt lat="45.79823" lon="4.79848">
        <ele>227.48913574219</ele>
        <time>2015-09-26T15:36:57Z</time>
      </trkpt>
      <trkpt lat="45.79729" lon="4.7986">
        <ele>226.52783203125</ele>
        <time>2015-09-26T15:37:12Z</time>
      </trkpt>
      <trkpt lat="45.79717" lon="4.79865">
        <ele>227.00854492188</ele>
        <time>2015-09-26T15:37:14Z</time>
      </trkpt>
      <trkpt lat="45.79619" lon="4.79913">
        <ele>228.93115234375</ele>
        <time>2015-09-26T15:37:31Z</time>
      </trkpt>
      <trkpt lat="45.79608" lon="4.79916">
        <ele>228.93115234375</ele>
        <time>2015-09-26T15:37:33Z</time>
      </trkpt>
      <trkpt lat="45.79509" lon="4.79912">
        <ele>227.9697265625</ele>
        <time>2015-09-26T15:37:50Z</time>
      </trkpt>
      <trkpt lat="45.79489" lon="4.79915">
        <ele>227.48913574219</ele>
        <time>2015-09-26T15:37:53Z</time>
      </trkpt>
      <trkpt lat="45.79433" lon="4.79947">
        <ele>221.24060058594</ele>
        <time>2015-09-26T15:38:01Z</time>
      </trkpt>
      <trkpt lat="45.79393" lon="4.79945">
        <ele>216.43395996094</ele>
        <time>2015-09-26T15:38:05Z</time>
      </trkpt>
      <trkpt lat="45.79372" lon="4.79944">
        <ele>214.99194335938</ele>
        <time>2015-09-26T15:38:07Z</time>
      </trkpt>
      <trkpt lat="45.79337" lon="4.7996">
        <ele>211.62744140625</ele>
        <time>2015-09-26T15:38:11Z</time>
      </trkpt>
      <trkpt lat="45.79318" lon="4.79973">
        <ele>208.74340820312</ele>
        <time>2015-09-26T15:38:13Z</time>
      </trkpt>
      <trkpt lat="45.79277" lon="4.79995">
        <ele>203.45617675781</ele>
        <time>2015-09-26T15:38:17Z</time>
      </trkpt>
      <trkpt lat="45.7925" lon="4.80029">
        <ele>201.05285644531</ele>
        <time>2015-09-26T15:38:21Z</time>
      </trkpt>
      <trkpt lat="45.79241" lon="4.80102">
        <ele>198.64953613281</ele>
        <time>2015-09-26T15:38:27Z</time>
      </trkpt>
      <trkpt lat="45.79241" lon="4.80159">
        <ele>193.3623046875</ele>
        <time>2015-09-26T15:38:31Z</time>
      </trkpt>
      <trkpt lat="45.79244" lon="4.8022">
        <ele>189.51696777344</ele>
        <time>2015-09-26T15:38:35Z</time>
      </trkpt>
      <trkpt lat="45.79217" lon="4.80269">
        <ele>185.19116210938</ele>
        <time>2015-09-26T15:38:40Z</time>
      </trkpt>
      <trkpt lat="45.79198" lon="4.80277">
        <ele>183.7490234375</ele>
        <time>2015-09-26T15:38:42Z</time>
      </trkpt>
      <trkpt lat="45.79157" lon="4.80291">
        <ele>180.38452148438</ele>
        <time>2015-09-26T15:38:46Z</time>
      </trkpt>
      <trkpt lat="45.79104" lon="4.80375">
        <ele>177.50061035156</ele>
        <time>2015-09-26T15:38:54Z</time>
      </trkpt>
      <trkpt lat="45.79085" lon="4.80403">
        <ele>176.53930664062</ele>
        <time>2015-09-26T15:38:57Z</time>
      </trkpt>
      <trkpt lat="45.79044" lon="4.80443">
        <ele>176.05859375</ele>
        <time>2015-09-26T15:39:03Z</time>
      </trkpt>
      <trkpt lat="45.78998" lon="4.80507">
        <ele>175.57788085938</ele>
        <time>2015-09-26T15:39:13Z</time>
      </trkpt>
      <trkpt lat="45.7898" lon="4.80544">
        <ele>175.09729003906</ele>
        <time>2015-09-26T15:39:19Z</time>
      </trkpt>
      <trkpt lat="45.78965" lon="4.80591">
        <ele>173.6552734375</ele>
        <time>2015-09-26T15:39:26Z</time>
      </trkpt>
      <trkpt lat="45.78958" lon="4.80613">
        <ele>173.17468261719</ele>
        <time>2015-09-26T15:39:29Z</time>
      </trkpt>
      <trkpt lat="45.78915" lon="4.80689">
        <ele>171.25207519531</ele>
        <time>2015-09-26T15:39:40Z</time>
      </trkpt>
      <trkpt lat="45.78896" lon="4.80708">
        <ele>170.77136230469</ele>
        <time>2015-09-26T15:39:44Z</time>
      </trkpt>
      <trkpt lat="45.78886" lon="4.8076">
        <ele>170.77136230469</ele>
        <time>2015-09-26T15:39:52Z</time>
      </trkpt>
      <trkpt lat="45.78884" lon="4.80772">
        <ele>171.25207519531</ele>
        <time>2015-09-26T15:39:59Z</time>
      </trkpt>
      <trkpt lat="45.78884" lon="4.80773">
        <ele>171.25207519531</ele>
        <time>2015-09-26T15:40:00Z</time>
      </trkpt>
      <trkpt lat="45.78875" lon="4.80777">
        <ele>171.25207519531</ele>
        <time>2015-09-26T15:40:03Z</time>
      </trkpt>
      <trkpt lat="45.78866" lon="4.80781">
        <ele>170.77136230469</ele>
        <time>2015-09-26T15:40:05Z</time>
      </trkpt>
      <trkpt lat="45.78812" lon="4.80847">
        <ele>168.36804199219</ele>
        <time>2015-09-26T15:40:18Z</time>
      </trkpt>
      <trkpt lat="45.78763" lon="4.80865">
        <ele>165.96472167969</ele>
        <time>2015-09-26T15:40:25Z</time>
      </trkpt>
      <trkpt lat="45.78622" lon="4.80809">
        <ele>163.08081054688</ele>
        <time>2015-09-26T15:40:44Z</time>
      </trkpt>
      <trkpt lat="45.78552" lon="4.80775">
        <ele>160.67749023438</ele>
        <time>2015-09-26T15:40:54Z</time>
      </trkpt>
      <trkpt lat="45.78517" lon="4.80775">
        <ele>159.23547363281</ele>
        <time>2015-09-26T15:40:59Z</time>
      </trkpt>
      <trkpt lat="45.78504" lon="4.80782">
        <ele>159.71618652344</ele>
        <time>2015-09-26T15:41:01Z</time>
      </trkpt>
      <trkpt lat="45.78484" lon="4.80781">
        <ele>159.71618652344</ele>
        <time>2015-09-26T15:41:05Z</time>
      </trkpt>
      <trkpt lat="45.7845" lon="4.8081">
        <ele>161.158203125</ele>
        <time>2015-09-26T15:41:10Z</time>
      </trkpt>
      <trkpt lat="45.78416" lon="4.80809">
        <ele>161.63891601562</ele>
        <time>2015-09-26T15:41:16Z</time>
      </trkpt>
      <trkpt lat="45.78357" lon="4.80783">
        <ele>161.158203125</ele>
        <time>2015-09-26T15:41:27Z</time>
      </trkpt>
      <trkpt lat="45.78336" lon="4.80775">
        <ele>162.11950683594</ele>
        <time>2015-09-26T15:41:33Z</time>
      </trkpt>
      <trkpt lat="45.78328" lon="4.80768">
        <ele>162.11950683594</ele>
        <time>2015-09-26T15:41:35Z</time>
      </trkpt>
      <trkpt lat="45.78264" lon="4.80729">
        <ele>160.67749023438</ele>
        <time>2015-09-26T15:41:48Z</time>
      </trkpt>
      <trkpt lat="45.78182" lon="4.80683">
        <ele>160.19689941406</ele>
        <time>2015-09-26T15:42:04Z</time>
      </trkpt>
      <trkpt lat="45.78169" lon="4.80673">
        <ele>160.67749023438</ele>
        <time>2015-09-26T15:42:09Z</time>
      </trkpt>
      <trkpt lat="45.78165" lon="4.80672">
        <ele>161.158203125</ele>
        <time>2015-09-26T15:42:23Z</time>
      </trkpt>
      <trkpt lat="45.78153" lon="4.80677">
        <ele>161.158203125</ele>
        <time>2015-09-26T15:42:29Z</time>
      </trkpt>
      <trkpt lat="45.78132" lon="4.80709">
        <ele>161.158203125</ele>
        <time>2015-09-26T15:42:37Z</time>
      </trkpt>
      <trkpt lat="45.78122" lon="4.80723">
        <ele>161.158203125</ele>
        <time>2015-09-26T15:42:40Z</time>
      </trkpt>
      <trkpt lat="45.78074" lon="4.8083">
        <ele>160.67749023438</ele>
        <time>2015-09-26T15:43:00Z</time>
      </trkpt>
      <trkpt lat="45.78048" lon="4.80889">
        <ele>161.63891601562</ele>
        <time>2015-09-26T15:43:14Z</time>
      </trkpt>
      <trkpt lat="45.78028" lon="4.80942">
        <ele>163.08081054688</ele>
        <time>2015-09-26T15:43:26Z</time>
      </trkpt>
      <trkpt lat="45.78013" lon="4.80994">
        <ele>164.52270507812</ele>
        <time>2015-09-26T15:43:36Z</time>
      </trkpt>
      <trkpt lat="45.77984" lon="4.81106">
        <ele>162.60009765625</ele>
        <time>2015-09-26T15:43:53Z</time>
      </trkpt>
      <trkpt lat="45.77978" lon="4.8113">
        <ele>161.63891601562</ele>
        <time>2015-09-26T15:43:56Z</time>
      </trkpt>
      <trkpt lat="45.77964" lon="4.81145">
        <ele>160.67749023438</ele>
        <time>2015-09-26T15:44:00Z</time>
      </trkpt>
      <trkpt lat="45.7787" lon="4.81105">
        <ele>157.31286621094</ele>
        <time>2015-09-26T15:44:19Z</time>
      </trkpt>
      <trkpt lat="45.77792" lon="4.81076">
        <ele>157.79357910156</ele>
        <time>2015-09-26T15:44:34Z</time>
      </trkpt>
      <trkpt lat="45.7769" lon="4.81041">
        <ele>156.83215332031</ele>
        <time>2015-09-26T15:44:52Z</time>
      </trkpt>
      <trkpt lat="45.77578" lon="4.81029">
        <ele>156.3515625</ele>
        <time>2015-09-26T15:45:10Z</time>
      </trkpt>
      <trkpt lat="45.77486" lon="4.81046">
        <ele>154.42895507812</ele>
        <time>2015-09-26T15:45:25Z</time>
      </trkpt>
      <trkpt lat="45.77424" lon="4.8109">
        <ele>153.46765136719</ele>
        <time>2015-09-26T15:45:35Z</time>
      </trkpt>
      <trkpt lat="45.77419" lon="4.81095">
        <ele>153.94836425781</ele>
        <time>2015-09-26T15:45:36Z</time>
      </trkpt>
      <trkpt lat="45.77406" lon="4.81109">
        <ele>154.90954589844</ele>
        <time>2015-09-26T15:45:39Z</time>
      </trkpt>
      <trkpt lat="45.77352" lon="4.81214">
        <ele>155.87097167969</ele>
        <time>2015-09-26T15:45:55Z</time>
      </trkpt>
      <trkpt lat="45.77334" lon="4.81245">
        <ele>156.83215332031</ele>
        <time>2015-09-26T15:46:00Z</time>
      </trkpt>
      <trkpt lat="45.77288" lon="4.81296">
        <ele>158.27416992188</ele>
        <time>2015-09-26T15:46:10Z</time>
      </trkpt>
      <trkpt lat="45.77244" lon="4.81331">
        <ele>160.19689941406</ele>
        <time>2015-09-26T15:46:19Z</time>
      </trkpt>
      <trkpt lat="45.77189" lon="4.81362">
        <ele>160.67749023438</ele>
        <time>2015-09-26T15:46:29Z</time>
      </trkpt>
      <trkpt lat="45.77098" lon="4.81397">
        <ele>160.67749023438</ele>
        <time>2015-09-26T15:46:46Z</time>
      </trkpt>
      <trkpt lat="45.77069" lon="4.81406">
        <ele>162.60009765625</ele>
        <time>2015-09-26T15:46:52Z</time>
      </trkpt>
      <trkpt lat="45.77044" lon="4.81412">
        <ele>162.60009765625</ele>
        <time>2015-09-26T15:46:57Z</time>
      </trkpt>
      <trkpt lat="45.77015" lon="4.81421">
        <ele>162.60009765625</ele>
        <time>2015-09-26T15:47:03Z</time>
      </trkpt>
      <trkpt lat="45.76934" lon="4.81471">
        <ele>161.63891601562</ele>
        <time>2015-09-26T15:47:20Z</time>
      </trkpt>
      <trkpt lat="45.76844" lon="4.81539">
        <ele>161.63891601562</ele>
        <time>2015-09-26T15:47:39Z</time>
      </trkpt>
      <trkpt lat="45.76844" lon="4.81558">
        <ele>161.63891601562</ele>
        <time>2015-09-26T15:47:43Z</time>
      </trkpt>
      <trkpt lat="45.76863" lon="4.81569">
        <ele>161.63891601562</ele>
        <time>2015-09-26T15:47:50Z</time>
      </trkpt>
      <trkpt lat="45.76861" lon="4.81604">
        <ele>163.08081054688</ele>
        <time>2015-09-26T15:48:00Z</time>
      </trkpt>
      <trkpt lat="45.76871" lon="4.81638">
        <ele>166.4453125</ele>
        <time>2015-09-26T15:48:12Z</time>
      </trkpt>
      <trkpt lat="45.76896" lon="4.81613">
        <ele>167.40673828125</ele>
        <time>2015-09-26T15:48:23Z</time>
      </trkpt>
      <trkpt lat="45.76919" lon="4.81563">
        <ele>169.32946777344</ele>
        <time>2015-09-26T15:48:38Z</time>
      </trkpt>
      <trkpt lat="45.76925" lon="4.81555">
        <ele>170.29064941406</ele>
        <time>2015-09-26T15:48:41Z</time>
      </trkpt>
      <trkpt lat="45.76928" lon="4.81566">
        <ele>171.73266601562</ele>
        <time>2015-09-26T15:48:46Z</time>
      </trkpt>
      <trkpt lat="45.76901" lon="4.81624">
        <ele>175.57788085938</ele>
        <time>2015-09-26T15:49:04Z</time>
      </trkpt>
      <trkpt lat="45.76876" lon="4.81685">
        <ele>179.90380859375</ele>
        <time>2015-09-26T15:49:23Z</time>
      </trkpt>
      <trkpt lat="45.76872" lon="4.81711">
        <ele>181.34582519531</ele>
        <time>2015-09-26T15:49:30Z</time>
      </trkpt>
      <trkpt lat="45.76878" lon="4.81713">
        <ele>183.26843261719</ele>
        <time>2015-09-26T15:49:35Z</time>
      </trkpt>
      <trkpt lat="45.76904" lon="4.81658">
        <ele>187.11376953125</ele>
        <time>2015-09-26T15:49:52Z</time>
      </trkpt>
      <trkpt lat="45.76937" lon="4.81611">
        <ele>189.99768066406</ele>
        <time>2015-09-26T15:50:09Z</time>
      </trkpt>
      <trkpt lat="45.76976" lon="4.81574">
        <ele>191.43957519531</ele>
        <time>2015-09-26T15:50:27Z</time>
      </trkpt>
      <trkpt lat="45.76985" lon="4.81567">
        <ele>192.40112304688</ele>
        <time>2015-09-26T15:50:31Z</time>
      </trkpt>
      <trkpt lat="45.76995" lon="4.81569">
        <ele>192.88171386719</ele>
        <time>2015-09-26T15:50:35Z</time>
      </trkpt>
      <trkpt lat="45.76999" lon="4.81574">
        <ele>193.3623046875</ele>
        <time>2015-09-26T15:50:37Z</time>
      </trkpt>
      <trkpt lat="45.77005" lon="4.81573">
        <ele>192.88171386719</ele>
        <time>2015-09-26T15:50:47Z</time>
      </trkpt>
      <trkpt lat="45.77006" lon="4.81575">
        <ele>192.40112304688</ele>
        <time>2015-09-26T15:51:13Z</time>
      </trkpt>
      <trkpt lat="45.77005" lon="4.81582">
        <ele>193.84301757812</ele>
        <time>2015-09-26T15:51:17Z</time>
      </trkpt>
      <trkpt lat="45.77007" lon="4.81602">
        <ele>196.72692871094</ele>
        <time>2015-09-26T15:51:23Z</time>
      </trkpt>
      <trkpt lat="45.77001" lon="4.81612">
        <ele>198.1689453125</ele>
        <time>2015-09-26T15:51:27Z</time>
      </trkpt>
      <trkpt lat="45.76966" lon="4.81643">
        <ele>202.49487304688</ele>
        <time>2015-09-26T15:51:45Z</time>
      </trkpt>
      <trkpt lat="45.76924" lon="4.81681">
        <ele>205.37878417969</ele>
        <time>2015-09-26T15:52:05Z</time>
      </trkpt>
      <trkpt lat="45.76913" lon="4.81722">
        <ele>205.85949707031</ele>
        <time>2015-09-26T15:52:19Z</time>
      </trkpt>
      <trkpt lat="45.76901" lon="4.81796">
        <ele>207.78210449219</ele>
        <time>2015-09-26T15:52:37Z</time>
      </trkpt>
      <trkpt lat="45.76887" lon="4.81888">
        <ele>207.78210449219</ele>
        <time>2015-09-26T15:52:53Z</time>
      </trkpt>
      <trkpt lat="45.76885" lon="4.8191">
        <ele>207.30139160156</ele>
        <time>2015-09-26T15:52:56Z</time>
      </trkpt>
      <trkpt lat="45.76898" lon="4.82024">
        <ele>205.37878417969</ele>
        <time>2015-09-26T15:53:11Z</time>
      </trkpt>
      <trkpt lat="45.76922" lon="4.82196">
        <ele>205.37878417969</ele>
        <time>2015-09-26T15:53:32Z</time>
      </trkpt>
      <trkpt lat="45.7695" lon="4.82401">
        <ele>203.45617675781</ele>
        <time>2015-09-26T15:53:57Z</time>
      </trkpt>
      <trkpt lat="45.76952" lon="4.8243">
        <ele>202.01428222656</ele>
        <time>2015-09-26T15:54:00Z</time>
      </trkpt>
      <trkpt lat="45.76976" lon="4.82455">
        <ele>200.572265625</ele>
        <time>2015-09-26T15:54:06Z</time>
      </trkpt>
      <trkpt lat="45.76979" lon="4.82465">
        <ele>201.05285644531</ele>
        <time>2015-09-26T15:54:08Z</time>
      </trkpt>
      <trkpt lat="45.7698" lon="4.82488">
        <ele>201.53356933594</ele>
        <time>2015-09-26T15:54:12Z</time>
      </trkpt>
      <trkpt lat="45.76982" lon="4.82533">
        <ele>202.97546386719</ele>
        <time>2015-09-26T15:54:21Z</time>
      </trkpt>
      <trkpt lat="45.76983" lon="4.82536">
        <ele>202.97546386719</ele>
        <time>2015-09-26T15:54:34Z</time>
      </trkpt>
      <trkpt lat="45.76983" lon="4.82537">
        <ele>202.97546386719</ele>
        <time>2015-09-26T15:55:31Z</time>
      </trkpt>
      <trkpt lat="45.76982" lon="4.82538">
        <ele>201.05285644531</ele>
        <time>2015-09-26T15:59:05Z</time>
      </trkpt>
    </trkseg>
  </trk>
</gpx>